<?xml version="1.0" encoding="UTF-8" standalone="no" ?>
<gpx xmlns="http://www.topografix.com/GPX/1/1" xmlns:xsi="http://www.w3.org/2001/XMLSchema-instance" xsi:schemaLocation="http://www.topografix.com/GPX/1/1 http://www.topografix.com/GPX/1/1/gpx.xsd" version="1.1" creator="VisuGPX - https://www.visugpx.com">
  <metadata>
    <name>Thiers Roanne 2012</name>
    <desc><![CDATA[Marche de nuit]]></desc>
  </metadata>
  <trk>
    <name><![CDATA[02-DEC-12 10:18:38-Original]]></name>
    <trkseg>
      <trkpt lat="45.85718" lon="3.54444">
        <ele>356.31</ele>
        <time>2012-12-01T23:01:40Z</time>
      </trkpt>
      <trkpt lat="45.85715" lon="3.54451">
        <ele>360.15</ele>
        <time>2012-12-01T23:01:47Z</time>
      </trkpt>
      <trkpt lat="45.85709" lon="3.54459">
        <ele>367.84</ele>
        <time>2012-12-01T23:01:53Z</time>
      </trkpt>
      <trkpt lat="45.85707" lon="3.54461">
        <ele>370.24</ele>
        <time>2012-12-01T23:01:55Z</time>
      </trkpt>
      <trkpt lat="45.85703" lon="3.54464">
        <ele>374.57</ele>
        <time>2012-12-01T23:01:59Z</time>
      </trkpt>
      <trkpt lat="45.85701" lon="3.54469">
        <ele>377.94</ele>
        <time>2012-12-01T23:02:02Z</time>
      </trkpt>
      <trkpt lat="45.857" lon="3.54479">
        <ele>382.26</ele>
        <time>2012-12-01T23:02:07Z</time>
      </trkpt>
      <trkpt lat="45.85695" lon="3.54488">
        <ele>387.07</ele>
        <time>2012-12-01T23:02:13Z</time>
      </trkpt>
      <trkpt lat="45.85691" lon="3.54497">
        <ele>390.91</ele>
        <time>2012-12-01T23:02:19Z</time>
      </trkpt>
      <trkpt lat="45.85687" lon="3.54505">
        <ele>394.28</ele>
        <time>2012-12-01T23:02:24Z</time>
      </trkpt>
      <trkpt lat="45.85686" lon="3.54507">
        <ele>394.28</ele>
        <time>2012-12-01T23:02:25Z</time>
      </trkpt>
      <trkpt lat="45.85688" lon="3.54517">
        <ele>397.64</ele>
        <time>2012-12-01T23:02:31Z</time>
      </trkpt>
      <trkpt lat="45.85701" lon="3.54561">
        <ele>404.37</ele>
        <time>2012-12-01T23:02:58Z</time>
      </trkpt>
      <trkpt lat="45.85642" lon="3.54602">
        <ele>407.74</ele>
        <time>2012-12-01T23:03:47Z</time>
      </trkpt>
      <trkpt lat="45.85505" lon="3.547">
        <ele>411.1</ele>
        <time>2012-12-01T23:05:40Z</time>
      </trkpt>
      <trkpt lat="45.85499" lon="3.54781">
        <ele>413.02</ele>
        <time>2012-12-01T23:06:35Z</time>
      </trkpt>
      <trkpt lat="45.8557" lon="3.54867">
        <ele>417.35</ele>
        <time>2012-12-01T23:07:46Z</time>
      </trkpt>
      <trkpt lat="45.85647" lon="3.54912">
        <ele>423.6</ele>
        <time>2012-12-01T23:08:51Z</time>
      </trkpt>
      <trkpt lat="45.85653" lon="3.54926">
        <ele>425.04</ele>
        <time>2012-12-01T23:09:02Z</time>
      </trkpt>
      <trkpt lat="45.85723" lon="3.55">
        <ele>429.37</ele>
        <time>2012-12-01T23:09:51Z</time>
      </trkpt>
      <trkpt lat="45.85895" lon="3.54988">
        <ele>434.17</ele>
        <time>2012-12-01T23:11:40Z</time>
      </trkpt>
      <trkpt lat="45.85957" lon="3.54995">
        <ele>437.54</ele>
        <time>2012-12-01T23:12:22Z</time>
      </trkpt>
      <trkpt lat="45.85961" lon="3.55001">
        <ele>437.54</ele>
        <time>2012-12-01T23:12:27Z</time>
      </trkpt>
      <trkpt lat="45.85976" lon="3.55052">
        <ele>441.38</ele>
        <time>2012-12-01T23:13:11Z</time>
      </trkpt>
      <trkpt lat="45.8595" lon="3.55109">
        <ele>444.75</ele>
        <time>2012-12-01T23:13:45Z</time>
      </trkpt>
      <trkpt lat="45.85939" lon="3.5513">
        <ele>445.71</ele>
        <time>2012-12-01T23:13:53Z</time>
      </trkpt>
      <trkpt lat="45.8594" lon="3.55196">
        <ele>448.59</ele>
        <time>2012-12-01T23:14:24Z</time>
      </trkpt>
      <trkpt lat="45.85935" lon="3.55278">
        <ele>452.92</ele>
        <time>2012-12-01T23:15:03Z</time>
      </trkpt>
      <trkpt lat="45.85935" lon="3.55356">
        <ele>456.28</ele>
        <time>2012-12-01T23:15:41Z</time>
      </trkpt>
      <trkpt lat="45.85933" lon="3.5537">
        <ele>458.21</ele>
        <time>2012-12-01T23:15:55Z</time>
      </trkpt>
      <trkpt lat="45.86031" lon="3.55381">
        <ele>462.05</ele>
        <time>2012-12-01T23:16:36Z</time>
      </trkpt>
      <trkpt lat="45.8609" lon="3.55362">
        <ele>465.9</ele>
        <time>2012-12-01T23:17:16Z</time>
      </trkpt>
      <trkpt lat="45.86193" lon="3.55372">
        <ele>470.22</ele>
        <time>2012-12-01T23:18:29Z</time>
      </trkpt>
      <trkpt lat="45.86298" lon="3.55453">
        <ele>476.47</ele>
        <time>2012-12-01T23:19:58Z</time>
      </trkpt>
      <trkpt lat="45.86324" lon="3.55548">
        <ele>481.28</ele>
        <time>2012-12-01T23:21:03Z</time>
      </trkpt>
      <trkpt lat="45.86322" lon="3.55606">
        <ele>483.68</ele>
        <time>2012-12-01T23:21:38Z</time>
      </trkpt>
      <trkpt lat="45.86317" lon="3.55619">
        <ele>484.16</ele>
        <time>2012-12-01T23:21:43Z</time>
      </trkpt>
      <trkpt lat="45.86304" lon="3.55636">
        <ele>484.64</ele>
        <time>2012-12-01T23:21:51Z</time>
      </trkpt>
      <trkpt lat="45.86271" lon="3.55673">
        <ele>486.08</ele>
        <time>2012-12-01T23:22:12Z</time>
      </trkpt>
      <trkpt lat="45.86291" lon="3.55752">
        <ele>489.45</ele>
        <time>2012-12-01T23:22:43Z</time>
      </trkpt>
      <trkpt lat="45.86298" lon="3.5583">
        <ele>492.81</ele>
        <time>2012-12-01T23:23:28Z</time>
      </trkpt>
      <trkpt lat="45.86297" lon="3.55842">
        <ele>493.29</ele>
        <time>2012-12-01T23:23:37Z</time>
      </trkpt>
      <trkpt lat="45.86263" lon="3.5594">
        <ele>496.66</ele>
        <time>2012-12-01T23:24:21Z</time>
      </trkpt>
      <trkpt lat="45.86282" lon="3.55993">
        <ele>499.54</ele>
        <time>2012-12-01T23:24:55Z</time>
      </trkpt>
      <trkpt lat="45.86356" lon="3.56047">
        <ele>505.31</ele>
        <time>2012-12-01T23:26:06Z</time>
      </trkpt>
      <trkpt lat="45.86366" lon="3.56052">
        <ele>505.31</ele>
        <time>2012-12-01T23:26:11Z</time>
      </trkpt>
      <trkpt lat="45.86444" lon="3.56099">
        <ele>508.67</ele>
        <time>2012-12-01T23:26:54Z</time>
      </trkpt>
      <trkpt lat="45.86575" lon="3.56144">
        <ele>514.92</ele>
        <time>2012-12-01T23:28:10Z</time>
      </trkpt>
      <trkpt lat="45.86636" lon="3.56166">
        <ele>518.29</ele>
        <time>2012-12-01T23:28:54Z</time>
      </trkpt>
      <trkpt lat="45.86671" lon="3.56214">
        <ele>522.61</ele>
        <time>2012-12-01T23:29:53Z</time>
      </trkpt>
      <trkpt lat="45.86679" lon="3.56279">
        <ele>526.46</ele>
        <time>2012-12-01T23:30:35Z</time>
      </trkpt>
      <trkpt lat="45.86664" lon="3.56276">
        <ele>527.9</ele>
        <time>2012-12-01T23:30:52Z</time>
      </trkpt>
      <trkpt lat="45.8664" lon="3.56284">
        <ele>528.86</ele>
        <time>2012-12-01T23:31:08Z</time>
      </trkpt>
      <trkpt lat="45.86584" lon="3.56355">
        <ele>533.19</ele>
        <time>2012-12-01T23:32:05Z</time>
      </trkpt>
      <trkpt lat="45.86531" lon="3.56426">
        <ele>537.51</ele>
        <time>2012-12-01T23:32:49Z</time>
      </trkpt>
      <trkpt lat="45.86528" lon="3.56441">
        <ele>537.99</ele>
        <time>2012-12-01T23:32:58Z</time>
      </trkpt>
      <trkpt lat="45.86514" lon="3.56512">
        <ele>540.88</ele>
        <time>2012-12-01T23:33:26Z</time>
      </trkpt>
      <trkpt lat="45.86515" lon="3.56515">
        <ele>540.88</ele>
        <time>2012-12-01T23:33:27Z</time>
      </trkpt>
      <trkpt lat="45.86576" lon="3.56522">
        <ele>543.76</ele>
        <time>2012-12-01T23:34:07Z</time>
      </trkpt>
      <trkpt lat="45.8663" lon="3.56534">
        <ele>547.13</ele>
        <time>2012-12-01T23:34:41Z</time>
      </trkpt>
      <trkpt lat="45.86634" lon="3.56541">
        <ele>547.13</ele>
        <time>2012-12-01T23:34:46Z</time>
      </trkpt>
      <trkpt lat="45.86692" lon="3.56622">
        <ele>551.45</ele>
        <time>2012-12-01T23:35:42Z</time>
      </trkpt>
      <trkpt lat="45.86766" lon="3.56634">
        <ele>554.82</ele>
        <time>2012-12-01T23:36:29Z</time>
      </trkpt>
      <trkpt lat="45.86886" lon="3.56664">
        <ele>561.55</ele>
        <time>2012-12-01T23:37:51Z</time>
      </trkpt>
      <trkpt lat="45.86893" lon="3.56668">
        <ele>561.55</ele>
        <time>2012-12-01T23:37:57Z</time>
      </trkpt>
      <trkpt lat="45.86969" lon="3.56746">
        <ele>565.87</ele>
        <time>2012-12-01T23:38:56Z</time>
      </trkpt>
      <trkpt lat="45.87069" lon="3.56752">
        <ele>571.16</ele>
        <time>2012-12-01T23:40:05Z</time>
      </trkpt>
      <trkpt lat="45.87123" lon="3.56795">
        <ele>574.53</ele>
        <time>2012-12-01T23:40:53Z</time>
      </trkpt>
      <trkpt lat="45.87162" lon="3.56878">
        <ele>578.37</ele>
        <time>2012-12-01T23:41:45Z</time>
      </trkpt>
      <trkpt lat="45.87244" lon="3.56966">
        <ele>580.77</ele>
        <time>2012-12-01T23:43:01Z</time>
      </trkpt>
      <trkpt lat="45.87296" lon="3.5707">
        <ele>580.29</ele>
        <time>2012-12-01T23:43:58Z</time>
      </trkpt>
      <trkpt lat="45.87346" lon="3.57181">
        <ele>584.14</ele>
        <time>2012-12-01T23:44:54Z</time>
      </trkpt>
      <trkpt lat="45.87361" lon="3.57217">
        <ele>587.5</ele>
        <time>2012-12-01T23:45:46Z</time>
      </trkpt>
      <trkpt lat="45.87396" lon="3.57314">
        <ele>591.83</ele>
        <time>2012-12-01T23:46:39Z</time>
      </trkpt>
      <trkpt lat="45.8747" lon="3.57428">
        <ele>596.64</ele>
        <time>2012-12-01T23:47:38Z</time>
      </trkpt>
      <trkpt lat="45.87553" lon="3.57387">
        <ele>600.48</ele>
        <time>2012-12-01T23:48:31Z</time>
      </trkpt>
      <trkpt lat="45.87592" lon="3.57299">
        <ele>603.85</ele>
        <time>2012-12-01T23:49:19Z</time>
      </trkpt>
      <trkpt lat="45.8764" lon="3.57245">
        <ele>607.69</ele>
        <time>2012-12-01T23:50:00Z</time>
      </trkpt>
      <trkpt lat="45.87638" lon="3.57238">
        <ele>607.21</ele>
        <time>2012-12-01T23:50:04Z</time>
      </trkpt>
      <trkpt lat="45.87608" lon="3.57174">
        <ele>610.57</ele>
        <time>2012-12-01T23:50:43Z</time>
      </trkpt>
      <trkpt lat="45.87643" lon="3.57119">
        <ele>614.42</ele>
        <time>2012-12-01T23:51:25Z</time>
      </trkpt>
      <trkpt lat="45.87688" lon="3.57166">
        <ele>618.75</ele>
        <time>2012-12-01T23:52:15Z</time>
      </trkpt>
      <trkpt lat="45.87746" lon="3.57179">
        <ele>622.11</ele>
        <time>2012-12-01T23:52:49Z</time>
      </trkpt>
      <trkpt lat="45.87778" lon="3.57135">
        <ele>625.47</ele>
        <time>2012-12-01T23:53:22Z</time>
      </trkpt>
      <trkpt lat="45.87815" lon="3.57086">
        <ele>628.84</ele>
        <time>2012-12-01T23:53:56Z</time>
      </trkpt>
      <trkpt lat="45.87837" lon="3.57099">
        <ele>632.2</ele>
        <time>2012-12-01T23:54:29Z</time>
      </trkpt>
      <trkpt lat="45.8786" lon="3.57126">
        <ele>637.01</ele>
        <time>2012-12-01T23:55:13Z</time>
      </trkpt>
      <trkpt lat="45.87967" lon="3.57302">
        <ele>642.78</ele>
        <time>2012-12-01T23:56:38Z</time>
      </trkpt>
      <trkpt lat="45.87991" lon="3.57424">
        <ele>646.62</ele>
        <time>2012-12-01T23:57:41Z</time>
      </trkpt>
      <trkpt lat="45.88119" lon="3.57499">
        <ele>651.91</ele>
        <time>2012-12-01T23:59:02Z</time>
      </trkpt>
      <trkpt lat="45.8817" lon="3.57511">
        <ele>655.28</ele>
        <time>2012-12-01T23:59:39Z</time>
      </trkpt>
      <trkpt lat="45.88222" lon="3.57532">
        <ele>659.12</ele>
        <time>2012-12-02T00:00:12Z</time>
      </trkpt>
      <trkpt lat="45.88253" lon="3.5755">
        <ele>661.04</ele>
        <time>2012-12-02T00:00:37Z</time>
      </trkpt>
      <trkpt lat="45.88257" lon="3.57566">
        <ele>662.97</ele>
        <time>2012-12-02T00:00:48Z</time>
      </trkpt>
      <trkpt lat="45.88259" lon="3.57575">
        <ele>662.97</ele>
        <time>2012-12-02T00:00:52Z</time>
      </trkpt>
      <trkpt lat="45.8828" lon="3.57662">
        <ele>659.6</ele>
        <time>2012-12-02T00:01:35Z</time>
      </trkpt>
      <trkpt lat="45.8828" lon="3.57663">
        <ele>659.6</ele>
        <time>2012-12-02T00:01:36Z</time>
      </trkpt>
      <trkpt lat="45.88292" lon="3.57697">
        <ele>656.24</ele>
        <time>2012-12-02T00:01:56Z</time>
      </trkpt>
      <trkpt lat="45.8829" lon="3.57698">
        <ele>656.24</ele>
        <time>2012-12-02T00:02:00Z</time>
      </trkpt>
      <trkpt lat="45.88292" lon="3.57712">
        <ele>654.31</ele>
        <time>2012-12-02T00:02:10Z</time>
      </trkpt>
      <trkpt lat="45.88324" lon="3.57774">
        <ele>649.99</ele>
        <time>2012-12-02T00:02:37Z</time>
      </trkpt>
      <trkpt lat="45.88344" lon="3.57832">
        <ele>646.62</ele>
        <time>2012-12-02T00:03:07Z</time>
      </trkpt>
      <trkpt lat="45.88344" lon="3.57835">
        <ele>646.62</ele>
        <time>2012-12-02T00:03:09Z</time>
      </trkpt>
      <trkpt lat="45.8836" lon="3.57857">
        <ele>646.14</ele>
        <time>2012-12-02T00:03:17Z</time>
      </trkpt>
      <trkpt lat="45.88458" lon="3.57995">
        <ele>642.3</ele>
        <time>2012-12-02T00:04:29Z</time>
      </trkpt>
      <trkpt lat="45.88475" lon="3.58035">
        <ele>639.41</ele>
        <time>2012-12-02T00:04:51Z</time>
      </trkpt>
      <trkpt lat="45.88471" lon="3.58076">
        <ele>635.57</ele>
        <time>2012-12-02T00:05:15Z</time>
      </trkpt>
      <trkpt lat="45.88465" lon="3.58135">
        <ele>632.2</ele>
        <time>2012-12-02T00:05:41Z</time>
      </trkpt>
      <trkpt lat="45.88466" lon="3.58143">
        <ele>632.2</ele>
        <time>2012-12-02T00:05:44Z</time>
      </trkpt>
      <trkpt lat="45.88466" lon="3.58183">
        <ele>628.36</ele>
        <time>2012-12-02T00:06:04Z</time>
      </trkpt>
      <trkpt lat="45.88466" lon="3.58184">
        <ele>628.36</ele>
        <time>2012-12-02T00:06:05Z</time>
      </trkpt>
      <trkpt lat="45.8848" lon="3.58233">
        <ele>624.51</ele>
        <time>2012-12-02T00:06:23Z</time>
      </trkpt>
      <trkpt lat="45.88468" lon="3.58275">
        <ele>619.23</ele>
        <time>2012-12-02T00:06:49Z</time>
      </trkpt>
      <trkpt lat="45.88445" lon="3.58297">
        <ele>615.38</ele>
        <time>2012-12-02T00:07:09Z</time>
      </trkpt>
      <trkpt lat="45.88428" lon="3.5835">
        <ele>610.57</ele>
        <time>2012-12-02T00:07:35Z</time>
      </trkpt>
      <trkpt lat="45.8847" lon="3.58403">
        <ele>607.21</ele>
        <time>2012-12-02T00:08:06Z</time>
      </trkpt>
      <trkpt lat="45.88496" lon="3.58539">
        <ele>600.48</ele>
        <time>2012-12-02T00:09:19Z</time>
      </trkpt>
      <trkpt lat="45.88504" lon="3.58591">
        <ele>598.56</ele>
        <time>2012-12-02T00:09:41Z</time>
      </trkpt>
      <trkpt lat="45.88446" lon="3.58695">
        <ele>602.88</ele>
        <time>2012-12-02T00:10:44Z</time>
      </trkpt>
      <trkpt lat="45.88431" lon="3.58718">
        <ele>605.29</ele>
        <time>2012-12-02T00:11:05Z</time>
      </trkpt>
      <trkpt lat="45.8839" lon="3.58755">
        <ele>609.13</ele>
        <time>2012-12-02T00:11:32Z</time>
      </trkpt>
      <trkpt lat="45.88358" lon="3.58817">
        <ele>613.94</ele>
        <time>2012-12-02T00:12:08Z</time>
      </trkpt>
      <trkpt lat="45.88338" lon="3.58848">
        <ele>617.3</ele>
        <time>2012-12-02T00:12:29Z</time>
      </trkpt>
      <trkpt lat="45.88318" lon="3.58873">
        <ele>619.71</ele>
        <time>2012-12-02T00:12:48Z</time>
      </trkpt>
      <trkpt lat="45.88282" lon="3.58938">
        <ele>625.47</ele>
        <time>2012-12-02T00:13:26Z</time>
      </trkpt>
      <trkpt lat="45.88255" lon="3.58968">
        <ele>629.32</ele>
        <time>2012-12-02T00:13:50Z</time>
      </trkpt>
      <trkpt lat="45.88236" lon="3.59007">
        <ele>632.68</ele>
        <time>2012-12-02T00:14:12Z</time>
      </trkpt>
      <trkpt lat="45.88204" lon="3.59074">
        <ele>639.41</ele>
        <time>2012-12-02T00:14:53Z</time>
      </trkpt>
      <trkpt lat="45.88189" lon="3.59114">
        <ele>642.78</ele>
        <time>2012-12-02T00:15:16Z</time>
      </trkpt>
      <trkpt lat="45.88184" lon="3.59134">
        <ele>644.7</ele>
        <time>2012-12-02T00:15:26Z</time>
      </trkpt>
      <trkpt lat="45.88184" lon="3.59135">
        <ele>644.7</ele>
        <time>2012-12-02T00:15:27Z</time>
      </trkpt>
      <trkpt lat="45.88155" lon="3.59202">
        <ele>645.18</ele>
        <time>2012-12-02T00:16:02Z</time>
      </trkpt>
      <trkpt lat="45.88127" lon="3.59256">
        <ele>642.3</ele>
        <time>2012-12-02T00:16:28Z</time>
      </trkpt>
      <trkpt lat="45.8812" lon="3.59315">
        <ele>636.05</ele>
        <time>2012-12-02T00:17:00Z</time>
      </trkpt>
      <trkpt lat="45.88132" lon="3.59338">
        <ele>632.68</ele>
        <time>2012-12-02T00:17:17Z</time>
      </trkpt>
      <trkpt lat="45.88141" lon="3.59352">
        <ele>630.28</ele>
        <time>2012-12-02T00:17:28Z</time>
      </trkpt>
      <trkpt lat="45.88164" lon="3.59392">
        <ele>625.96</ele>
        <time>2012-12-02T00:17:48Z</time>
      </trkpt>
      <trkpt lat="45.88165" lon="3.59394">
        <ele>625.96</ele>
        <time>2012-12-02T00:17:49Z</time>
      </trkpt>
      <trkpt lat="45.88165" lon="3.59403">
        <ele>624.51</ele>
        <time>2012-12-02T00:17:56Z</time>
      </trkpt>
      <trkpt lat="45.88165" lon="3.59406">
        <ele>624.51</ele>
        <time>2012-12-02T00:17:58Z</time>
      </trkpt>
      <trkpt lat="45.88168" lon="3.59443">
        <ele>620.67</ele>
        <time>2012-12-02T00:18:17Z</time>
      </trkpt>
      <trkpt lat="45.88178" lon="3.59503">
        <ele>616.34</ele>
        <time>2012-12-02T00:18:40Z</time>
      </trkpt>
      <trkpt lat="45.88184" lon="3.5957">
        <ele>610.09</ele>
        <time>2012-12-02T00:19:06Z</time>
      </trkpt>
      <trkpt lat="45.88191" lon="3.59641">
        <ele>605.29</ele>
        <time>2012-12-02T00:19:26Z</time>
      </trkpt>
      <trkpt lat="45.88214" lon="3.59689">
        <ele>601.44</ele>
        <time>2012-12-02T00:19:43Z</time>
      </trkpt>
      <trkpt lat="45.88227" lon="3.59864">
        <ele>599.04</ele>
        <time>2012-12-02T00:21:02Z</time>
      </trkpt>
      <trkpt lat="45.88167" lon="3.59894">
        <ele>601.92</ele>
        <time>2012-12-02T00:21:46Z</time>
      </trkpt>
      <trkpt lat="45.88142" lon="3.59907">
        <ele>605.29</ele>
        <time>2012-12-02T00:22:03Z</time>
      </trkpt>
      <trkpt lat="45.88126" lon="3.59916">
        <ele>608.17</ele>
        <time>2012-12-02T00:22:17Z</time>
      </trkpt>
      <trkpt lat="45.88106" lon="3.59942">
        <ele>612.02</ele>
        <time>2012-12-02T00:22:36Z</time>
      </trkpt>
      <trkpt lat="45.88074" lon="3.59967">
        <ele>615.38</ele>
        <time>2012-12-02T00:22:58Z</time>
      </trkpt>
      <trkpt lat="45.88025" lon="3.59981">
        <ele>620.67</ele>
        <time>2012-12-02T00:23:34Z</time>
      </trkpt>
      <trkpt lat="45.87995" lon="3.6001">
        <ele>624.99</ele>
        <time>2012-12-02T00:23:59Z</time>
      </trkpt>
      <trkpt lat="45.87984" lon="3.60064">
        <ele>629.32</ele>
        <time>2012-12-02T00:24:26Z</time>
      </trkpt>
      <trkpt lat="45.87988" lon="3.601">
        <ele>633.17</ele>
        <time>2012-12-02T00:24:45Z</time>
      </trkpt>
      <trkpt lat="45.88011" lon="3.60138">
        <ele>638.93</ele>
        <time>2012-12-02T00:25:11Z</time>
      </trkpt>
      <trkpt lat="45.88044" lon="3.60166">
        <ele>642.3</ele>
        <time>2012-12-02T00:25:38Z</time>
      </trkpt>
      <trkpt lat="45.88045" lon="3.60168">
        <ele>642.3</ele>
        <time>2012-12-02T00:25:39Z</time>
      </trkpt>
      <trkpt lat="45.88116" lon="3.60218">
        <ele>642.3</ele>
        <time>2012-12-02T00:28:02Z</time>
      </trkpt>
      <trkpt lat="45.88215" lon="3.6025">
        <ele>636.05</ele>
        <time>2012-12-02T00:29:38Z</time>
      </trkpt>
      <trkpt lat="45.88241" lon="3.60282">
        <ele>632.68</ele>
        <time>2012-12-02T00:30:03Z</time>
      </trkpt>
      <trkpt lat="45.88257" lon="3.60332">
        <ele>628.36</ele>
        <time>2012-12-02T00:30:28Z</time>
      </trkpt>
      <trkpt lat="45.88267" lon="3.60412">
        <ele>625.96</ele>
        <time>2012-12-02T00:31:01Z</time>
      </trkpt>
      <trkpt lat="45.88268" lon="3.60474">
        <ele>623.07</ele>
        <time>2012-12-02T00:31:31Z</time>
      </trkpt>
      <trkpt lat="45.88265" lon="3.60533">
        <ele>619.23</ele>
        <time>2012-12-02T00:31:58Z</time>
      </trkpt>
      <trkpt lat="45.88243" lon="3.60614">
        <ele>615.86</ele>
        <time>2012-12-02T00:32:38Z</time>
      </trkpt>
      <trkpt lat="45.88207" lon="3.60672">
        <ele>612.5</ele>
        <time>2012-12-02T00:33:04Z</time>
      </trkpt>
      <trkpt lat="45.88189" lon="3.60714">
        <ele>609.13</ele>
        <time>2012-12-02T00:33:16Z</time>
      </trkpt>
      <trkpt lat="45.88174" lon="3.60761">
        <ele>605.77</ele>
        <time>2012-12-02T00:33:31Z</time>
      </trkpt>
      <trkpt lat="45.88144" lon="3.60882">
        <ele>602.4</ele>
        <time>2012-12-02T00:34:25Z</time>
      </trkpt>
      <trkpt lat="45.8813" lon="3.61002">
        <ele>598.56</ele>
        <time>2012-12-02T00:35:18Z</time>
      </trkpt>
      <trkpt lat="45.88103" lon="3.61155">
        <ele>592.31</ele>
        <time>2012-12-02T00:36:25Z</time>
      </trkpt>
      <trkpt lat="45.88084" lon="3.6124">
        <ele>587.5</ele>
        <time>2012-12-02T00:37:02Z</time>
      </trkpt>
      <trkpt lat="45.88106" lon="3.61307">
        <ele>583.66</ele>
        <time>2012-12-02T00:37:31Z</time>
      </trkpt>
      <trkpt lat="45.88096" lon="3.61406">
        <ele>581.73</ele>
        <time>2012-12-02T00:38:21Z</time>
      </trkpt>
      <trkpt lat="45.88114" lon="3.61485">
        <ele>588.95</ele>
        <time>2012-12-02T00:39:07Z</time>
      </trkpt>
      <trkpt lat="45.88118" lon="3.61488">
        <ele>588.95</ele>
        <time>2012-12-02T00:39:10Z</time>
      </trkpt>
      <trkpt lat="45.88149" lon="3.61519">
        <ele>593.27</ele>
        <time>2012-12-02T00:39:32Z</time>
      </trkpt>
      <trkpt lat="45.8815" lon="3.61521">
        <ele>593.27</ele>
        <time>2012-12-02T00:39:33Z</time>
      </trkpt>
      <trkpt lat="45.88178" lon="3.61569">
        <ele>597.12</ele>
        <time>2012-12-02T00:40:02Z</time>
      </trkpt>
      <trkpt lat="45.88187" lon="3.61613">
        <ele>600.96</ele>
        <time>2012-12-02T00:40:26Z</time>
      </trkpt>
      <trkpt lat="45.88188" lon="3.61647">
        <ele>605.29</ele>
        <time>2012-12-02T00:40:44Z</time>
      </trkpt>
      <trkpt lat="45.88173" lon="3.61682">
        <ele>608.65</ele>
        <time>2012-12-02T00:41:04Z</time>
      </trkpt>
      <trkpt lat="45.88171" lon="3.61742">
        <ele>613.46</ele>
        <time>2012-12-02T00:41:35Z</time>
      </trkpt>
      <trkpt lat="45.88175" lon="3.61781">
        <ele>617.3</ele>
        <time>2012-12-02T00:41:55Z</time>
      </trkpt>
      <trkpt lat="45.88178" lon="3.61812">
        <ele>620.67</ele>
        <time>2012-12-02T00:42:10Z</time>
      </trkpt>
      <trkpt lat="45.88174" lon="3.61846">
        <ele>624.03</ele>
        <time>2012-12-02T00:42:27Z</time>
      </trkpt>
      <trkpt lat="45.88168" lon="3.61868">
        <ele>626.44</ele>
        <time>2012-12-02T00:42:39Z</time>
      </trkpt>
      <trkpt lat="45.88166" lon="3.6187">
        <ele>626.44</ele>
        <time>2012-12-02T00:42:41Z</time>
      </trkpt>
      <trkpt lat="45.88154" lon="3.61895">
        <ele>629.8</ele>
        <time>2012-12-02T00:42:57Z</time>
      </trkpt>
      <trkpt lat="45.88124" lon="3.61954">
        <ele>636.05</ele>
        <time>2012-12-02T00:43:32Z</time>
      </trkpt>
      <trkpt lat="45.88163" lon="3.62059">
        <ele>639.41</ele>
        <time>2012-12-02T00:44:45Z</time>
      </trkpt>
      <trkpt lat="45.882" lon="3.6217">
        <ele>643.26</ele>
        <time>2012-12-02T00:45:53Z</time>
      </trkpt>
      <trkpt lat="45.88262" lon="3.62274">
        <ele>642.78</ele>
        <time>2012-12-02T00:46:51Z</time>
      </trkpt>
      <trkpt lat="45.88278" lon="3.62438">
        <ele>639.41</ele>
        <time>2012-12-02T00:48:06Z</time>
      </trkpt>
      <trkpt lat="45.88271" lon="3.62473">
        <ele>637.49</ele>
        <time>2012-12-02T00:48:22Z</time>
      </trkpt>
      <trkpt lat="45.88248" lon="3.62509">
        <ele>634.13</ele>
        <time>2012-12-02T00:48:43Z</time>
      </trkpt>
      <trkpt lat="45.88243" lon="3.62515">
        <ele>633.17</ele>
        <time>2012-12-02T00:48:47Z</time>
      </trkpt>
      <trkpt lat="45.88221" lon="3.62544">
        <ele>630.76</ele>
        <time>2012-12-02T00:49:05Z</time>
      </trkpt>
      <trkpt lat="45.88221" lon="3.62547">
        <ele>630.76</ele>
        <time>2012-12-02T00:49:06Z</time>
      </trkpt>
      <trkpt lat="45.88196" lon="3.62595">
        <ele>626.92</ele>
        <time>2012-12-02T00:49:31Z</time>
      </trkpt>
      <trkpt lat="45.88181" lon="3.62632">
        <ele>623.55</ele>
        <time>2012-12-02T00:49:49Z</time>
      </trkpt>
      <trkpt lat="45.8814" lon="3.62743">
        <ele>627.88</ele>
        <time>2012-12-02T00:50:43Z</time>
      </trkpt>
      <trkpt lat="45.88082" lon="3.62844">
        <ele>631.72</ele>
        <time>2012-12-02T00:51:44Z</time>
      </trkpt>
      <trkpt lat="45.88054" lon="3.62901">
        <ele>636.53</ele>
        <time>2012-12-02T00:52:14Z</time>
      </trkpt>
      <trkpt lat="45.87943" lon="3.6307">
        <ele>635.57</ele>
        <time>2012-12-02T00:53:55Z</time>
      </trkpt>
      <trkpt lat="45.87928" lon="3.6311">
        <ele>629.32</ele>
        <time>2012-12-02T00:54:14Z</time>
      </trkpt>
      <trkpt lat="45.87909" lon="3.63416">
        <ele>629.8</ele>
        <time>2012-12-02T00:56:29Z</time>
      </trkpt>
      <trkpt lat="45.87903" lon="3.63475">
        <ele>633.65</ele>
        <time>2012-12-02T00:56:56Z</time>
      </trkpt>
      <trkpt lat="45.87898" lon="3.6352">
        <ele>637.49</ele>
        <time>2012-12-02T00:57:18Z</time>
      </trkpt>
      <trkpt lat="45.87884" lon="3.63569">
        <ele>640.38</ele>
        <time>2012-12-02T00:57:44Z</time>
      </trkpt>
      <trkpt lat="45.87882" lon="3.6357">
        <ele>640.38</ele>
        <time>2012-12-02T00:57:45Z</time>
      </trkpt>
      <trkpt lat="45.87849" lon="3.6362">
        <ele>643.74</ele>
        <time>2012-12-02T00:58:20Z</time>
      </trkpt>
      <trkpt lat="45.87817" lon="3.63659">
        <ele>647.59</ele>
        <time>2012-12-02T00:58:48Z</time>
      </trkpt>
      <trkpt lat="45.87816" lon="3.6366">
        <ele>647.59</ele>
        <time>2012-12-02T00:58:49Z</time>
      </trkpt>
      <trkpt lat="45.87794" lon="3.63689">
        <ele>650.95</ele>
        <time>2012-12-02T00:59:09Z</time>
      </trkpt>
      <trkpt lat="45.8779" lon="3.63693">
        <ele>650.47</ele>
        <time>2012-12-02T00:59:12Z</time>
      </trkpt>
      <trkpt lat="45.87735" lon="3.63757">
        <ele>649.99</ele>
        <time>2012-12-02T00:59:54Z</time>
      </trkpt>
      <trkpt lat="45.87703" lon="3.639">
        <ele>646.14</ele>
        <time>2012-12-02T01:00:56Z</time>
      </trkpt>
      <trkpt lat="45.87689" lon="3.6391">
        <ele>646.62</ele>
        <time>2012-12-02T01:01:06Z</time>
      </trkpt>
      <trkpt lat="45.87643" lon="3.63937">
        <ele>649.99</ele>
        <time>2012-12-02T01:01:40Z</time>
      </trkpt>
      <trkpt lat="45.87585" lon="3.64009">
        <ele>647.59</ele>
        <time>2012-12-02T01:02:26Z</time>
      </trkpt>
      <trkpt lat="45.87506" lon="3.64115">
        <ele>651.43</ele>
        <time>2012-12-02T01:03:39Z</time>
      </trkpt>
      <trkpt lat="45.87476" lon="3.64161">
        <ele>656.72</ele>
        <time>2012-12-02T01:04:08Z</time>
      </trkpt>
      <trkpt lat="45.87476" lon="3.64164">
        <ele>656.72</ele>
        <time>2012-12-02T01:04:09Z</time>
      </trkpt>
      <trkpt lat="45.87451" lon="3.64248">
        <ele>661.52</ele>
        <time>2012-12-02T01:04:52Z</time>
      </trkpt>
      <trkpt lat="45.87434" lon="3.64398">
        <ele>659.12</ele>
        <time>2012-12-02T01:05:57Z</time>
      </trkpt>
      <trkpt lat="45.87425" lon="3.64493">
        <ele>655.28</ele>
        <time>2012-12-02T01:06:37Z</time>
      </trkpt>
      <trkpt lat="45.87424" lon="3.6457">
        <ele>651.43</ele>
        <time>2012-12-02T01:07:09Z</time>
      </trkpt>
      <trkpt lat="45.87369" lon="3.64789">
        <ele>649.51</ele>
        <time>2012-12-02T01:08:48Z</time>
      </trkpt>
      <trkpt lat="45.87359" lon="3.64799">
        <ele>649.99</ele>
        <time>2012-12-02T01:08:57Z</time>
      </trkpt>
      <trkpt lat="45.87307" lon="3.64851">
        <ele>646.62</ele>
        <time>2012-12-02T01:09:36Z</time>
      </trkpt>
      <trkpt lat="45.87295" lon="3.64901">
        <ele>642.78</ele>
        <time>2012-12-02T01:10:05Z</time>
      </trkpt>
      <trkpt lat="45.87288" lon="3.64955">
        <ele>638.45</ele>
        <time>2012-12-02T01:10:25Z</time>
      </trkpt>
      <trkpt lat="45.87287" lon="3.64958">
        <ele>638.45</ele>
        <time>2012-12-02T01:10:26Z</time>
      </trkpt>
      <trkpt lat="45.87285" lon="3.64992">
        <ele>635.09</ele>
        <time>2012-12-02T01:10:38Z</time>
      </trkpt>
      <trkpt lat="45.87286" lon="3.65032">
        <ele>631.24</ele>
        <time>2012-12-02T01:10:49Z</time>
      </trkpt>
      <trkpt lat="45.87302" lon="3.65078">
        <ele>626.44</ele>
        <time>2012-12-02T01:11:04Z</time>
      </trkpt>
      <trkpt lat="45.87371" lon="3.65187">
        <ele>623.55</ele>
        <time>2012-12-02T01:11:56Z</time>
      </trkpt>
      <trkpt lat="45.87328" lon="3.65227">
        <ele>617.78</ele>
        <time>2012-12-02T01:12:31Z</time>
      </trkpt>
      <trkpt lat="45.87326" lon="3.65228">
        <ele>622.59</ele>
        <time>2012-12-02T01:12:32Z</time>
      </trkpt>
      <trkpt lat="45.87319" lon="3.65231">
        <ele>616.82</ele>
        <time>2012-12-02T01:12:36Z</time>
      </trkpt>
      <trkpt lat="45.87318" lon="3.65231">
        <ele>621.15</ele>
        <time>2012-12-02T01:12:37Z</time>
      </trkpt>
      <trkpt lat="45.87288" lon="3.65248">
        <ele>616.82</ele>
        <time>2012-12-02T01:13:00Z</time>
      </trkpt>
      <trkpt lat="45.87255" lon="3.65265">
        <ele>616.82</ele>
        <time>2012-12-02T01:13:20Z</time>
      </trkpt>
      <trkpt lat="45.87229" lon="3.65393">
        <ele>618.26</ele>
        <time>2012-12-02T01:14:21Z</time>
      </trkpt>
      <trkpt lat="45.87219" lon="3.65429">
        <ele>616.82</ele>
        <time>2012-12-02T01:14:37Z</time>
      </trkpt>
      <trkpt lat="45.87216" lon="3.65442">
        <ele>616.34</ele>
        <time>2012-12-02T01:14:43Z</time>
      </trkpt>
      <trkpt lat="45.87176" lon="3.65481">
        <ele>612.02</ele>
        <time>2012-12-02T01:15:12Z</time>
      </trkpt>
      <trkpt lat="45.8713" lon="3.65584">
        <ele>605.77</ele>
        <time>2012-12-02T01:16:06Z</time>
      </trkpt>
      <trkpt lat="45.87126" lon="3.65607">
        <ele>603.36</ele>
        <time>2012-12-02T01:16:16Z</time>
      </trkpt>
      <trkpt lat="45.87128" lon="3.65787">
        <ele>599.04</ele>
        <time>2012-12-02T01:17:37Z</time>
      </trkpt>
      <trkpt lat="45.87137" lon="3.65952">
        <ele>602.4</ele>
        <time>2012-12-02T01:18:50Z</time>
      </trkpt>
      <trkpt lat="45.8718" lon="3.66402">
        <ele>605.29</ele>
        <time>2012-12-02T01:22:12Z</time>
      </trkpt>
      <trkpt lat="45.87196" lon="3.66622">
        <ele>601.44</ele>
        <time>2012-12-02T01:23:52Z</time>
      </trkpt>
      <trkpt lat="45.87221" lon="3.66813">
        <ele>601.44</ele>
        <time>2012-12-02T01:25:17Z</time>
      </trkpt>
      <trkpt lat="45.87242" lon="3.6699">
        <ele>604.81</ele>
        <time>2012-12-02T01:26:36Z</time>
      </trkpt>
      <trkpt lat="45.87233" lon="3.67364">
        <ele>606.73</ele>
        <time>2012-12-02T01:29:23Z</time>
      </trkpt>
      <trkpt lat="45.87307" lon="3.67643">
        <ele>606.25</ele>
        <time>2012-12-02T01:31:40Z</time>
      </trkpt>
      <trkpt lat="45.87403" lon="3.67733">
        <ele>609.61</ele>
        <time>2012-12-02T01:32:48Z</time>
      </trkpt>
      <trkpt lat="45.87494" lon="3.67806">
        <ele>612.98</ele>
        <time>2012-12-02T01:33:57Z</time>
      </trkpt>
      <trkpt lat="45.8767" lon="3.68037">
        <ele>612.98</ele>
        <time>2012-12-02T01:36:26Z</time>
      </trkpt>
      <trkpt lat="45.87784" lon="3.68187">
        <ele>612.5</ele>
        <time>2012-12-02T01:38:03Z</time>
      </trkpt>
      <trkpt lat="45.87809" lon="3.68539">
        <ele>615.86</ele>
        <time>2012-12-02T01:40:43Z</time>
      </trkpt>
      <trkpt lat="45.87844" lon="3.6863">
        <ele>618.26</ele>
        <time>2012-12-02T01:41:31Z</time>
      </trkpt>
      <trkpt lat="45.87835" lon="3.68854">
        <ele>621.63</ele>
        <time>2012-12-02T01:43:13Z</time>
      </trkpt>
      <trkpt lat="45.87889" lon="3.69068">
        <ele>624.99</ele>
        <time>2012-12-02T01:44:55Z</time>
      </trkpt>
      <trkpt lat="45.87913" lon="3.69254">
        <ele>627.4</ele>
        <time>2012-12-02T01:46:22Z</time>
      </trkpt>
      <trkpt lat="45.87913" lon="3.69258">
        <ele>627.4</ele>
        <time>2012-12-02T01:46:24Z</time>
      </trkpt>
      <trkpt lat="45.87923" lon="3.69376">
        <ele>627.4</ele>
        <time>2012-12-02T01:47:18Z</time>
      </trkpt>
      <trkpt lat="45.87854" lon="3.69453">
        <ele>624.03</ele>
        <time>2012-12-02T01:48:16Z</time>
      </trkpt>
      <trkpt lat="45.87802" lon="3.69435">
        <ele>624.51</ele>
        <time>2012-12-02T01:50:24Z</time>
      </trkpt>
      <trkpt lat="45.87796" lon="3.69481">
        <ele>623.07</ele>
        <time>2012-12-02T01:56:23Z</time>
      </trkpt>
      <trkpt lat="45.87798" lon="3.69488">
        <ele>623.07</ele>
        <time>2012-12-02T01:56:27Z</time>
      </trkpt>
      <trkpt lat="45.87804" lon="3.69507">
        <ele>623.07</ele>
        <time>2012-12-02T01:56:37Z</time>
      </trkpt>
      <trkpt lat="45.87841" lon="3.69502">
        <ele>623.55</ele>
        <time>2012-12-02T01:57:08Z</time>
      </trkpt>
      <trkpt lat="45.87894" lon="3.69587">
        <ele>626.92</ele>
        <time>2012-12-02T01:58:06Z</time>
      </trkpt>
      <trkpt lat="45.87932" lon="3.69665">
        <ele>629.8</ele>
        <time>2012-12-02T01:59:07Z</time>
      </trkpt>
      <trkpt lat="45.87934" lon="3.69679">
        <ele>630.76</ele>
        <time>2012-12-02T01:59:13Z</time>
      </trkpt>
      <trkpt lat="45.87949" lon="3.69757">
        <ele>635.09</ele>
        <time>2012-12-02T01:59:50Z</time>
      </trkpt>
      <trkpt lat="45.87958" lon="3.69822">
        <ele>638.45</ele>
        <time>2012-12-02T02:00:21Z</time>
      </trkpt>
      <trkpt lat="45.87973" lon="3.69892">
        <ele>641.82</ele>
        <time>2012-12-02T02:00:54Z</time>
      </trkpt>
      <trkpt lat="45.87992" lon="3.7">
        <ele>646.62</ele>
        <time>2012-12-02T02:01:46Z</time>
      </trkpt>
      <trkpt lat="45.88" lon="3.70089">
        <ele>650.47</ele>
        <time>2012-12-02T02:02:28Z</time>
      </trkpt>
      <trkpt lat="45.88014" lon="3.70179">
        <ele>653.83</ele>
        <time>2012-12-02T02:03:10Z</time>
      </trkpt>
      <trkpt lat="45.88029" lon="3.70273">
        <ele>657.68</ele>
        <time>2012-12-02T02:03:54Z</time>
      </trkpt>
      <trkpt lat="45.88029" lon="3.70275">
        <ele>657.68</ele>
        <time>2012-12-02T02:03:55Z</time>
      </trkpt>
      <trkpt lat="45.88063" lon="3.70359">
        <ele>661.52</ele>
        <time>2012-12-02T02:04:40Z</time>
      </trkpt>
      <trkpt lat="45.88104" lon="3.70451">
        <ele>665.85</ele>
        <time>2012-12-02T02:05:29Z</time>
      </trkpt>
      <trkpt lat="45.88125" lon="3.70519">
        <ele>669.7</ele>
        <time>2012-12-02T02:06:04Z</time>
      </trkpt>
      <trkpt lat="45.88144" lon="3.70589">
        <ele>673.06</ele>
        <time>2012-12-02T02:06:38Z</time>
      </trkpt>
      <trkpt lat="45.88157" lon="3.70667">
        <ele>677.39</ele>
        <time>2012-12-02T02:07:16Z</time>
      </trkpt>
      <trkpt lat="45.88168" lon="3.70748">
        <ele>680.75</ele>
        <time>2012-12-02T02:07:54Z</time>
      </trkpt>
      <trkpt lat="45.88176" lon="3.70816">
        <ele>684.12</ele>
        <time>2012-12-02T02:08:26Z</time>
      </trkpt>
      <trkpt lat="45.88185" lon="3.7088">
        <ele>687.48</ele>
        <time>2012-12-02T02:08:57Z</time>
      </trkpt>
      <trkpt lat="45.88185" lon="3.70882">
        <ele>687.48</ele>
        <time>2012-12-02T02:08:58Z</time>
      </trkpt>
      <trkpt lat="45.88194" lon="3.70957">
        <ele>691.33</ele>
        <time>2012-12-02T02:09:32Z</time>
      </trkpt>
      <trkpt lat="45.88201" lon="3.71026">
        <ele>694.69</ele>
        <time>2012-12-02T02:10:04Z</time>
      </trkpt>
      <trkpt lat="45.88217" lon="3.7116">
        <ele>701.9</ele>
        <time>2012-12-02T02:11:09Z</time>
      </trkpt>
      <trkpt lat="45.88231" lon="3.71265">
        <ele>706.71</ele>
        <time>2012-12-02T02:11:57Z</time>
      </trkpt>
      <trkpt lat="45.8824" lon="3.71338">
        <ele>710.07</ele>
        <time>2012-12-02T02:12:31Z</time>
      </trkpt>
      <trkpt lat="45.88254" lon="3.71456">
        <ele>715.84</ele>
        <time>2012-12-02T02:13:26Z</time>
      </trkpt>
      <trkpt lat="45.88255" lon="3.71458">
        <ele>715.84</ele>
        <time>2012-12-02T02:13:27Z</time>
      </trkpt>
      <trkpt lat="45.8826" lon="3.71506">
        <ele>718.72</ele>
        <time>2012-12-02T02:13:51Z</time>
      </trkpt>
      <trkpt lat="45.88272" lon="3.716">
        <ele>724.97</ele>
        <time>2012-12-02T02:14:38Z</time>
      </trkpt>
      <trkpt lat="45.88278" lon="3.71668">
        <ele>729.3</ele>
        <time>2012-12-02T02:15:10Z</time>
      </trkpt>
      <trkpt lat="45.88278" lon="3.7167">
        <ele>729.3</ele>
        <time>2012-12-02T02:15:11Z</time>
      </trkpt>
      <trkpt lat="45.88286" lon="3.71727">
        <ele>733.14</ele>
        <time>2012-12-02T02:15:38Z</time>
      </trkpt>
      <trkpt lat="45.883" lon="3.71833">
        <ele>739.87</ele>
        <time>2012-12-02T02:16:30Z</time>
      </trkpt>
      <trkpt lat="45.883" lon="3.71835">
        <ele>739.87</ele>
        <time>2012-12-02T02:16:31Z</time>
      </trkpt>
      <trkpt lat="45.88305" lon="3.71884">
        <ele>743.24</ele>
        <time>2012-12-02T02:16:55Z</time>
      </trkpt>
      <trkpt lat="45.88306" lon="3.71886">
        <ele>743.24</ele>
        <time>2012-12-02T02:16:56Z</time>
      </trkpt>
      <trkpt lat="45.88316" lon="3.71959">
        <ele>748.04</ele>
        <time>2012-12-02T02:17:32Z</time>
      </trkpt>
      <trkpt lat="45.8832" lon="3.72007">
        <ele>751.41</ele>
        <time>2012-12-02T02:17:56Z</time>
      </trkpt>
      <trkpt lat="45.8832" lon="3.72009">
        <ele>751.41</ele>
        <time>2012-12-02T02:17:57Z</time>
      </trkpt>
      <trkpt lat="45.88326" lon="3.72048">
        <ele>753.81</ele>
        <time>2012-12-02T02:18:15Z</time>
      </trkpt>
      <trkpt lat="45.88335" lon="3.721">
        <ele>757.66</ele>
        <time>2012-12-02T02:18:42Z</time>
      </trkpt>
      <trkpt lat="45.88335" lon="3.72102">
        <ele>757.66</ele>
        <time>2012-12-02T02:18:43Z</time>
      </trkpt>
      <trkpt lat="45.88352" lon="3.72177">
        <ele>761.5</ele>
        <time>2012-12-02T02:19:20Z</time>
      </trkpt>
      <trkpt lat="45.88353" lon="3.72183">
        <ele>761.5</ele>
        <time>2012-12-02T02:19:23Z</time>
      </trkpt>
      <trkpt lat="45.88364" lon="3.72315">
        <ele>765.35</ele>
        <time>2012-12-02T02:20:28Z</time>
      </trkpt>
      <trkpt lat="45.88363" lon="3.72321">
        <ele>765.35</ele>
        <time>2012-12-02T02:20:31Z</time>
      </trkpt>
      <trkpt lat="45.88363" lon="3.72356">
        <ele>766.79</ele>
        <time>2012-12-02T02:20:48Z</time>
      </trkpt>
      <trkpt lat="45.88363" lon="3.72409">
        <ele>771.11</ele>
        <time>2012-12-02T02:21:14Z</time>
      </trkpt>
      <trkpt lat="45.88363" lon="3.72411">
        <ele>771.11</ele>
        <time>2012-12-02T02:21:15Z</time>
      </trkpt>
      <trkpt lat="45.88363" lon="3.72446">
        <ele>774.48</ele>
        <time>2012-12-02T02:21:33Z</time>
      </trkpt>
      <trkpt lat="45.88357" lon="3.72506">
        <ele>779.29</ele>
        <time>2012-12-02T02:22:02Z</time>
      </trkpt>
      <trkpt lat="45.88358" lon="3.72559">
        <ele>784.57</ele>
        <time>2012-12-02T02:22:30Z</time>
      </trkpt>
      <trkpt lat="45.88357" lon="3.72561">
        <ele>784.57</ele>
        <time>2012-12-02T02:22:31Z</time>
      </trkpt>
      <trkpt lat="45.88357" lon="3.72612">
        <ele>788.9</ele>
        <time>2012-12-02T02:22:59Z</time>
      </trkpt>
      <trkpt lat="45.88353" lon="3.72646">
        <ele>792.26</ele>
        <time>2012-12-02T02:23:17Z</time>
      </trkpt>
      <trkpt lat="45.88352" lon="3.72678">
        <ele>795.63</ele>
        <time>2012-12-02T02:23:34Z</time>
      </trkpt>
      <trkpt lat="45.8835" lon="3.72751">
        <ele>798.51</ele>
        <time>2012-12-02T02:24:09Z</time>
      </trkpt>
      <trkpt lat="45.8835" lon="3.72852">
        <ele>793.22</ele>
        <time>2012-12-02T02:24:53Z</time>
      </trkpt>
      <trkpt lat="45.88349" lon="3.72854">
        <ele>793.22</ele>
        <time>2012-12-02T02:24:54Z</time>
      </trkpt>
      <trkpt lat="45.88351" lon="3.72914">
        <ele>789.38</ele>
        <time>2012-12-02T02:25:20Z</time>
      </trkpt>
      <trkpt lat="45.88352" lon="3.72978">
        <ele>784.57</ele>
        <time>2012-12-02T02:25:49Z</time>
      </trkpt>
      <trkpt lat="45.88352" lon="3.72985">
        <ele>784.57</ele>
        <time>2012-12-02T02:25:52Z</time>
      </trkpt>
      <trkpt lat="45.8835" lon="3.73043">
        <ele>780.25</ele>
        <time>2012-12-02T02:26:20Z</time>
      </trkpt>
      <trkpt lat="45.88355" lon="3.73118">
        <ele>776.4</ele>
        <time>2012-12-02T02:26:50Z</time>
      </trkpt>
      <trkpt lat="45.88355" lon="3.73121">
        <ele>776.4</ele>
        <time>2012-12-02T02:26:51Z</time>
      </trkpt>
      <trkpt lat="45.88383" lon="3.73398">
        <ele>779.77</ele>
        <time>2012-12-02T02:28:55Z</time>
      </trkpt>
      <trkpt lat="45.88443" lon="3.73606">
        <ele>783.13</ele>
        <time>2012-12-02T02:30:34Z</time>
      </trkpt>
      <trkpt lat="45.88462" lon="3.73686">
        <ele>788.9</ele>
        <time>2012-12-02T02:31:16Z</time>
      </trkpt>
      <trkpt lat="45.88462" lon="3.73688">
        <ele>788.9</ele>
        <time>2012-12-02T02:31:17Z</time>
      </trkpt>
      <trkpt lat="45.88471" lon="3.73723">
        <ele>792.26</ele>
        <time>2012-12-02T02:31:36Z</time>
      </trkpt>
      <trkpt lat="45.88472" lon="3.73726">
        <ele>792.26</ele>
        <time>2012-12-02T02:31:38Z</time>
      </trkpt>
      <trkpt lat="45.88481" lon="3.73785">
        <ele>797.55</ele>
        <time>2012-12-02T02:32:10Z</time>
      </trkpt>
      <trkpt lat="45.88484" lon="3.73819">
        <ele>799.47</ele>
        <time>2012-12-02T02:32:27Z</time>
      </trkpt>
      <trkpt lat="45.88458" lon="3.73948">
        <ele>800.92</ele>
        <time>2012-12-02T02:33:28Z</time>
      </trkpt>
      <trkpt lat="45.88414" lon="3.74064">
        <ele>804.28</ele>
        <time>2012-12-02T02:34:27Z</time>
      </trkpt>
      <trkpt lat="45.88407" lon="3.74103">
        <ele>807.64</ele>
        <time>2012-12-02T02:34:47Z</time>
      </trkpt>
      <trkpt lat="45.88399" lon="3.74148">
        <ele>811.97</ele>
        <time>2012-12-02T02:35:10Z</time>
      </trkpt>
      <trkpt lat="45.88398" lon="3.74168">
        <ele>813.41</ele>
        <time>2012-12-02T02:35:20Z</time>
      </trkpt>
      <trkpt lat="45.88405" lon="3.74197">
        <ele>815.82</ele>
        <time>2012-12-02T02:35:35Z</time>
      </trkpt>
      <trkpt lat="45.88409" lon="3.74243">
        <ele>820.14</ele>
        <time>2012-12-02T02:35:59Z</time>
      </trkpt>
      <trkpt lat="45.88412" lon="3.74285">
        <ele>824.95</ele>
        <time>2012-12-02T02:36:25Z</time>
      </trkpt>
      <trkpt lat="45.88412" lon="3.74315">
        <ele>828.31</ele>
        <time>2012-12-02T02:36:41Z</time>
      </trkpt>
      <trkpt lat="45.88416" lon="3.74367">
        <ele>834.56</ele>
        <time>2012-12-02T02:37:11Z</time>
      </trkpt>
      <trkpt lat="45.88416" lon="3.74369">
        <ele>834.56</ele>
        <time>2012-12-02T02:37:12Z</time>
      </trkpt>
      <trkpt lat="45.88417" lon="3.74399">
        <ele>837.93</ele>
        <time>2012-12-02T02:37:28Z</time>
      </trkpt>
      <trkpt lat="45.8842" lon="3.74431">
        <ele>841.29</ele>
        <time>2012-12-02T02:37:47Z</time>
      </trkpt>
      <trkpt lat="45.8842" lon="3.74433">
        <ele>841.29</ele>
        <time>2012-12-02T02:37:48Z</time>
      </trkpt>
      <trkpt lat="45.88427" lon="3.74487">
        <ele>846.58</ele>
        <time>2012-12-02T02:38:16Z</time>
      </trkpt>
      <trkpt lat="45.88429" lon="3.74526">
        <ele>850.42</ele>
        <time>2012-12-02T02:38:38Z</time>
      </trkpt>
      <trkpt lat="45.88438" lon="3.74574">
        <ele>856.19</ele>
        <time>2012-12-02T02:39:08Z</time>
      </trkpt>
      <trkpt lat="45.88439" lon="3.74587">
        <ele>857.63</ele>
        <time>2012-12-02T02:39:15Z</time>
      </trkpt>
      <trkpt lat="45.88442" lon="3.7463">
        <ele>862.44</ele>
        <time>2012-12-02T02:39:39Z</time>
      </trkpt>
      <trkpt lat="45.88442" lon="3.74653">
        <ele>865.8</ele>
        <time>2012-12-02T02:39:54Z</time>
      </trkpt>
      <trkpt lat="45.8844" lon="3.74685">
        <ele>869.65</ele>
        <time>2012-12-02T02:40:10Z</time>
      </trkpt>
      <trkpt lat="45.88443" lon="3.74711">
        <ele>873.5</ele>
        <time>2012-12-02T02:40:26Z</time>
      </trkpt>
      <trkpt lat="45.88439" lon="3.74756">
        <ele>878.3</ele>
        <time>2012-12-02T02:40:50Z</time>
      </trkpt>
      <trkpt lat="45.88434" lon="3.7481">
        <ele>884.55</ele>
        <time>2012-12-02T02:41:21Z</time>
      </trkpt>
      <trkpt lat="45.88433" lon="3.74812">
        <ele>884.07</ele>
        <time>2012-12-02T02:41:22Z</time>
      </trkpt>
      <trkpt lat="45.88422" lon="3.74864">
        <ele>888.4</ele>
        <time>2012-12-02T02:41:48Z</time>
      </trkpt>
      <trkpt lat="45.88421" lon="3.74898">
        <ele>891.76</ele>
        <time>2012-12-02T02:42:06Z</time>
      </trkpt>
      <trkpt lat="45.88413" lon="3.74937">
        <ele>895.61</ele>
        <time>2012-12-02T02:42:28Z</time>
      </trkpt>
      <trkpt lat="45.88417" lon="3.74977">
        <ele>899.45</ele>
        <time>2012-12-02T02:42:51Z</time>
      </trkpt>
      <trkpt lat="45.8842" lon="3.75011">
        <ele>903.78</ele>
        <time>2012-12-02T02:43:13Z</time>
      </trkpt>
      <trkpt lat="45.8842" lon="3.75013">
        <ele>903.78</ele>
        <time>2012-12-02T02:43:14Z</time>
      </trkpt>
      <trkpt lat="45.88423" lon="3.75058">
        <ele>909.06</ele>
        <time>2012-12-02T02:43:39Z</time>
      </trkpt>
      <trkpt lat="45.88433" lon="3.75096">
        <ele>913.39</ele>
        <time>2012-12-02T02:44:02Z</time>
      </trkpt>
      <trkpt lat="45.88445" lon="3.75161">
        <ele>920.12</ele>
        <time>2012-12-02T02:44:35Z</time>
      </trkpt>
      <trkpt lat="45.88457" lon="3.75194">
        <ele>923.48</ele>
        <time>2012-12-02T02:44:53Z</time>
      </trkpt>
      <trkpt lat="45.88463" lon="3.7521">
        <ele>925.89</ele>
        <time>2012-12-02T02:45:05Z</time>
      </trkpt>
      <trkpt lat="45.88489" lon="3.7524">
        <ele>930.21</ele>
        <time>2012-12-02T02:45:30Z</time>
      </trkpt>
      <trkpt lat="45.88489" lon="3.75241">
        <ele>930.21</ele>
        <time>2012-12-02T02:45:31Z</time>
      </trkpt>
      <trkpt lat="45.88507" lon="3.75271">
        <ele>934.54</ele>
        <time>2012-12-02T02:45:53Z</time>
      </trkpt>
      <trkpt lat="45.88529" lon="3.75302">
        <ele>939.83</ele>
        <time>2012-12-02T02:46:20Z</time>
      </trkpt>
      <trkpt lat="45.88554" lon="3.75348">
        <ele>945.11</ele>
        <time>2012-12-02T02:46:50Z</time>
      </trkpt>
      <trkpt lat="45.8858" lon="3.75381">
        <ele>949.44</ele>
        <time>2012-12-02T02:47:19Z</time>
      </trkpt>
      <trkpt lat="45.88607" lon="3.75433">
        <ele>949.92</ele>
        <time>2012-12-02T02:51:24Z</time>
      </trkpt>
      <trkpt lat="45.88597" lon="3.7548">
        <ele>946.07</ele>
        <time>2012-12-02T02:53:47Z</time>
      </trkpt>
      <trkpt lat="45.88564" lon="3.75519">
        <ele>941.75</ele>
        <time>2012-12-02T02:54:17Z</time>
      </trkpt>
      <trkpt lat="45.88561" lon="3.75524">
        <ele>941.75</ele>
        <time>2012-12-02T02:54:20Z</time>
      </trkpt>
      <trkpt lat="45.88542" lon="3.75554">
        <ele>938.38</ele>
        <time>2012-12-02T02:54:40Z</time>
      </trkpt>
      <trkpt lat="45.88552" lon="3.75602">
        <ele>933.58</ele>
        <time>2012-12-02T02:55:04Z</time>
      </trkpt>
      <trkpt lat="45.88572" lon="3.7564">
        <ele>929.25</ele>
        <time>2012-12-02T02:55:27Z</time>
      </trkpt>
      <trkpt lat="45.88589" lon="3.7567">
        <ele>925.89</ele>
        <time>2012-12-02T02:55:44Z</time>
      </trkpt>
      <trkpt lat="45.88616" lon="3.75707">
        <ele>922.52</ele>
        <time>2012-12-02T02:56:10Z</time>
      </trkpt>
      <trkpt lat="45.88636" lon="3.75748">
        <ele>917.72</ele>
        <time>2012-12-02T02:56:30Z</time>
      </trkpt>
      <trkpt lat="45.88639" lon="3.75751">
        <ele>917.72</ele>
        <time>2012-12-02T02:56:31Z</time>
      </trkpt>
      <trkpt lat="45.88679" lon="3.75765">
        <ele>912.91</ele>
        <time>2012-12-02T02:56:48Z</time>
      </trkpt>
      <trkpt lat="45.8872" lon="3.75768">
        <ele>907.62</ele>
        <time>2012-12-02T02:57:06Z</time>
      </trkpt>
      <trkpt lat="45.88761" lon="3.75773">
        <ele>903.3</ele>
        <time>2012-12-02T02:57:24Z</time>
      </trkpt>
      <trkpt lat="45.88806" lon="3.75795">
        <ele>898.97</ele>
        <time>2012-12-02T02:57:45Z</time>
      </trkpt>
      <trkpt lat="45.88853" lon="3.75823">
        <ele>893.68</ele>
        <time>2012-12-02T02:58:09Z</time>
      </trkpt>
      <trkpt lat="45.88899" lon="3.75852">
        <ele>888.88</ele>
        <time>2012-12-02T02:58:30Z</time>
      </trkpt>
      <trkpt lat="45.88937" lon="3.75874">
        <ele>885.03</ele>
        <time>2012-12-02T02:58:47Z</time>
      </trkpt>
      <trkpt lat="45.8896" lon="3.75897">
        <ele>881.67</ele>
        <time>2012-12-02T02:59:01Z</time>
      </trkpt>
      <trkpt lat="45.88978" lon="3.75922">
        <ele>877.34</ele>
        <time>2012-12-02T02:59:13Z</time>
      </trkpt>
      <trkpt lat="45.88998" lon="3.75951">
        <ele>873.98</ele>
        <time>2012-12-02T02:59:29Z</time>
      </trkpt>
      <trkpt lat="45.89027" lon="3.75988">
        <ele>870.61</ele>
        <time>2012-12-02T02:59:49Z</time>
      </trkpt>
      <trkpt lat="45.89061" lon="3.76027">
        <ele>866.77</ele>
        <time>2012-12-02T03:00:10Z</time>
      </trkpt>
      <trkpt lat="45.8907" lon="3.76037">
        <ele>865.32</ele>
        <time>2012-12-02T03:00:15Z</time>
      </trkpt>
      <trkpt lat="45.89066" lon="3.76069">
        <ele>861.96</ele>
        <time>2012-12-02T03:00:28Z</time>
      </trkpt>
      <trkpt lat="45.89039" lon="3.76071">
        <ele>856.67</ele>
        <time>2012-12-02T03:00:44Z</time>
      </trkpt>
      <trkpt lat="45.89005" lon="3.7607">
        <ele>853.31</ele>
        <time>2012-12-02T03:00:57Z</time>
      </trkpt>
      <trkpt lat="45.88976" lon="3.76068">
        <ele>849.94</ele>
        <time>2012-12-02T03:01:11Z</time>
      </trkpt>
      <trkpt lat="45.88951" lon="3.76069">
        <ele>846.58</ele>
        <time>2012-12-02T03:01:22Z</time>
      </trkpt>
      <trkpt lat="45.88927" lon="3.76111">
        <ele>840.33</ele>
        <time>2012-12-02T03:01:37Z</time>
      </trkpt>
      <trkpt lat="45.88924" lon="3.76152">
        <ele>836</ele>
        <time>2012-12-02T03:01:47Z</time>
      </trkpt>
      <trkpt lat="45.8893" lon="3.76218">
        <ele>831.68</ele>
        <time>2012-12-02T03:02:04Z</time>
      </trkpt>
      <trkpt lat="45.8894" lon="3.7631">
        <ele>826.39</ele>
        <time>2012-12-02T03:02:31Z</time>
      </trkpt>
      <trkpt lat="45.88948" lon="3.76394">
        <ele>823.03</ele>
        <time>2012-12-02T03:02:54Z</time>
      </trkpt>
      <trkpt lat="45.88954" lon="3.76423">
        <ele>823.03</ele>
        <time>2012-12-02T03:03:02Z</time>
      </trkpt>
      <trkpt lat="45.88983" lon="3.76531">
        <ele>822.06</ele>
        <time>2012-12-02T03:03:47Z</time>
      </trkpt>
      <trkpt lat="45.88968" lon="3.76594">
        <ele>821.58</ele>
        <time>2012-12-02T03:04:17Z</time>
      </trkpt>
      <trkpt lat="45.88952" lon="3.76674">
        <ele>820.14</ele>
        <time>2012-12-02T03:04:54Z</time>
      </trkpt>
      <trkpt lat="45.88998" lon="3.76787">
        <ele>814.85</ele>
        <time>2012-12-02T03:05:47Z</time>
      </trkpt>
      <trkpt lat="45.89016" lon="3.76836">
        <ele>809.09</ele>
        <time>2012-12-02T03:06:11Z</time>
      </trkpt>
      <trkpt lat="45.89018" lon="3.76887">
        <ele>805.24</ele>
        <time>2012-12-02T03:06:31Z</time>
      </trkpt>
      <trkpt lat="45.88997" lon="3.77071">
        <ele>798.51</ele>
        <time>2012-12-02T03:07:48Z</time>
      </trkpt>
      <trkpt lat="45.88993" lon="3.77133">
        <ele>794.19</ele>
        <time>2012-12-02T03:08:14Z</time>
      </trkpt>
      <trkpt lat="45.88995" lon="3.77179">
        <ele>789.38</ele>
        <time>2012-12-02T03:08:34Z</time>
      </trkpt>
      <trkpt lat="45.89009" lon="3.7722">
        <ele>785.05</ele>
        <time>2012-12-02T03:08:56Z</time>
      </trkpt>
      <trkpt lat="45.8902" lon="3.77248">
        <ele>781.69</ele>
        <time>2012-12-02T03:09:10Z</time>
      </trkpt>
      <trkpt lat="45.89037" lon="3.77303">
        <ele>775.92</ele>
        <time>2012-12-02T03:09:34Z</time>
      </trkpt>
      <trkpt lat="45.89046" lon="3.7733">
        <ele>772.56</ele>
        <time>2012-12-02T03:09:46Z</time>
      </trkpt>
      <trkpt lat="45.89064" lon="3.77393">
        <ele>766.31</ele>
        <time>2012-12-02T03:10:14Z</time>
      </trkpt>
      <trkpt lat="45.89123" lon="3.77586">
        <ele>760.06</ele>
        <time>2012-12-02T03:11:42Z</time>
      </trkpt>
      <trkpt lat="45.89144" lon="3.77675">
        <ele>753.81</ele>
        <time>2012-12-02T03:12:24Z</time>
      </trkpt>
      <trkpt lat="45.89166" lon="3.77768">
        <ele>749</ele>
        <time>2012-12-02T03:13:12Z</time>
      </trkpt>
      <trkpt lat="45.89173" lon="3.77831">
        <ele>745.64</ele>
        <time>2012-12-02T03:13:37Z</time>
      </trkpt>
      <trkpt lat="45.89206" lon="3.7789">
        <ele>741.31</ele>
        <time>2012-12-02T03:13:58Z</time>
      </trkpt>
      <trkpt lat="45.89215" lon="3.77918">
        <ele>738.91</ele>
        <time>2012-12-02T03:14:12Z</time>
      </trkpt>
      <trkpt lat="45.89245" lon="3.78009">
        <ele>735.07</ele>
        <time>2012-12-02T03:14:53Z</time>
      </trkpt>
      <trkpt lat="45.89274" lon="3.78083">
        <ele>729.3</ele>
        <time>2012-12-02T03:15:29Z</time>
      </trkpt>
      <trkpt lat="45.8929" lon="3.78141">
        <ele>725.45</ele>
        <time>2012-12-02T03:15:57Z</time>
      </trkpt>
      <trkpt lat="45.89312" lon="3.78199">
        <ele>721.13</ele>
        <time>2012-12-02T03:16:29Z</time>
      </trkpt>
      <trkpt lat="45.89315" lon="3.78207">
        <ele>721.13</ele>
        <time>2012-12-02T03:16:33Z</time>
      </trkpt>
      <trkpt lat="45.89403" lon="3.78504">
        <ele>714.88</ele>
        <time>2012-12-02T03:18:50Z</time>
      </trkpt>
      <trkpt lat="45.89426" lon="3.78581">
        <ele>711.51</ele>
        <time>2012-12-02T03:19:27Z</time>
      </trkpt>
      <trkpt lat="45.89454" lon="3.78667">
        <ele>707.67</ele>
        <time>2012-12-02T03:20:08Z</time>
      </trkpt>
      <trkpt lat="45.89515" lon="3.78862">
        <ele>703.34</ele>
        <time>2012-12-02T03:21:41Z</time>
      </trkpt>
      <trkpt lat="45.89568" lon="3.79074">
        <ele>696.61</ele>
        <time>2012-12-02T03:23:21Z</time>
      </trkpt>
      <trkpt lat="45.8957" lon="3.79086">
        <ele>696.61</ele>
        <time>2012-12-02T03:23:26Z</time>
      </trkpt>
      <trkpt lat="45.89577" lon="3.79119">
        <ele>693.25</ele>
        <time>2012-12-02T03:23:41Z</time>
      </trkpt>
      <trkpt lat="45.89586" lon="3.79174">
        <ele>687.96</ele>
        <time>2012-12-02T03:24:06Z</time>
      </trkpt>
      <trkpt lat="45.89593" lon="3.79231">
        <ele>683.63</ele>
        <time>2012-12-02T03:24:32Z</time>
      </trkpt>
      <trkpt lat="45.89609" lon="3.79395">
        <ele>679.31</ele>
        <time>2012-12-02T03:25:44Z</time>
      </trkpt>
      <trkpt lat="45.89619" lon="3.79496">
        <ele>675.94</ele>
        <time>2012-12-02T03:26:27Z</time>
      </trkpt>
      <trkpt lat="45.89629" lon="3.79569">
        <ele>672.1</ele>
        <time>2012-12-02T03:27:00Z</time>
      </trkpt>
      <trkpt lat="45.89637" lon="3.79628">
        <ele>668.73</ele>
        <time>2012-12-02T03:27:27Z</time>
      </trkpt>
      <trkpt lat="45.89646" lon="3.79678">
        <ele>664.89</ele>
        <time>2012-12-02T03:27:49Z</time>
      </trkpt>
      <trkpt lat="45.89654" lon="3.79734">
        <ele>661.52</ele>
        <time>2012-12-02T03:28:14Z</time>
      </trkpt>
      <trkpt lat="45.8967" lon="3.79867">
        <ele>658.16</ele>
        <time>2012-12-02T03:29:12Z</time>
      </trkpt>
      <trkpt lat="45.89672" lon="3.79875">
        <ele>658.16</ele>
        <time>2012-12-02T03:29:16Z</time>
      </trkpt>
      <trkpt lat="45.89691" lon="3.8009">
        <ele>662.97</ele>
        <time>2012-12-02T03:30:52Z</time>
      </trkpt>
      <trkpt lat="45.89704" lon="3.80193">
        <ele>658.16</ele>
        <time>2012-12-02T03:31:37Z</time>
      </trkpt>
      <trkpt lat="45.89711" lon="3.80269">
        <ele>652.87</ele>
        <time>2012-12-02T03:32:09Z</time>
      </trkpt>
      <trkpt lat="45.89718" lon="3.80327">
        <ele>648.55</ele>
        <time>2012-12-02T03:32:35Z</time>
      </trkpt>
      <trkpt lat="45.8972" lon="3.80334">
        <ele>648.55</ele>
        <time>2012-12-02T03:32:38Z</time>
      </trkpt>
      <trkpt lat="45.89731" lon="3.80426">
        <ele>644.7</ele>
        <time>2012-12-02T03:33:18Z</time>
      </trkpt>
      <trkpt lat="45.89744" lon="3.80551">
        <ele>640.38</ele>
        <time>2012-12-02T03:34:13Z</time>
      </trkpt>
      <trkpt lat="45.89783" lon="3.8092">
        <ele>644.7</ele>
        <time>2012-12-02T03:37:07Z</time>
      </trkpt>
      <trkpt lat="45.89781" lon="3.80957">
        <ele>647.59</ele>
        <time>2012-12-02T03:37:24Z</time>
      </trkpt>
      <trkpt lat="45.8976" lon="3.81003">
        <ele>652.39</ele>
        <time>2012-12-02T03:37:53Z</time>
      </trkpt>
      <trkpt lat="45.89729" lon="3.81044">
        <ele>658.16</ele>
        <time>2012-12-02T03:38:24Z</time>
      </trkpt>
      <trkpt lat="45.89706" lon="3.81083">
        <ele>662.97</ele>
        <time>2012-12-02T03:38:51Z</time>
      </trkpt>
      <trkpt lat="45.89682" lon="3.81122">
        <ele>667.77</ele>
        <time>2012-12-02T03:39:19Z</time>
      </trkpt>
      <trkpt lat="45.89666" lon="3.8115">
        <ele>671.62</ele>
        <time>2012-12-02T03:39:40Z</time>
      </trkpt>
      <trkpt lat="45.89672" lon="3.81173">
        <ele>675.46</ele>
        <time>2012-12-02T03:39:55Z</time>
      </trkpt>
      <trkpt lat="45.8971" lon="3.81194">
        <ele>681.23</ele>
        <time>2012-12-02T03:40:28Z</time>
      </trkpt>
      <trkpt lat="45.89752" lon="3.81214">
        <ele>686.04</ele>
        <time>2012-12-02T03:41:02Z</time>
      </trkpt>
      <trkpt lat="45.89796" lon="3.81234">
        <ele>690.36</ele>
        <time>2012-12-02T03:41:34Z</time>
      </trkpt>
      <trkpt lat="45.89837" lon="3.81262">
        <ele>695.65</ele>
        <time>2012-12-02T03:42:06Z</time>
      </trkpt>
      <trkpt lat="45.89851" lon="3.81306">
        <ele>699.5</ele>
        <time>2012-12-02T03:42:32Z</time>
      </trkpt>
      <trkpt lat="45.89868" lon="3.81369">
        <ele>703.82</ele>
        <time>2012-12-02T03:43:04Z</time>
      </trkpt>
      <trkpt lat="45.89887" lon="3.81431">
        <ele>707.67</ele>
        <time>2012-12-02T03:43:38Z</time>
      </trkpt>
      <trkpt lat="45.89902" lon="3.81457">
        <ele>711.03</ele>
        <time>2012-12-02T03:43:57Z</time>
      </trkpt>
      <trkpt lat="45.89932" lon="3.81486">
        <ele>715.36</ele>
        <time>2012-12-02T03:44:25Z</time>
      </trkpt>
      <trkpt lat="45.89943" lon="3.81496">
        <ele>716.8</ele>
        <time>2012-12-02T03:44:34Z</time>
      </trkpt>
      <trkpt lat="45.89974" lon="3.81521">
        <ele>721.13</ele>
        <time>2012-12-02T03:45:00Z</time>
      </trkpt>
      <trkpt lat="45.89999" lon="3.81543">
        <ele>724.49</ele>
        <time>2012-12-02T03:45:22Z</time>
      </trkpt>
      <trkpt lat="45.90034" lon="3.81578">
        <ele>729.3</ele>
        <time>2012-12-02T03:45:51Z</time>
      </trkpt>
      <trkpt lat="45.90063" lon="3.81611">
        <ele>733.62</ele>
        <time>2012-12-02T03:46:20Z</time>
      </trkpt>
      <trkpt lat="45.901" lon="3.81647">
        <ele>737.95</ele>
        <time>2012-12-02T03:46:51Z</time>
      </trkpt>
      <trkpt lat="45.90116" lon="3.81661">
        <ele>737.95</ele>
        <time>2012-12-02T03:47:05Z</time>
      </trkpt>
      <trkpt lat="45.9054" lon="3.82126">
        <ele>742.28</ele>
        <time>2012-12-02T03:52:48Z</time>
      </trkpt>
      <trkpt lat="45.9064" lon="3.82228">
        <ele>738.91</ele>
        <time>2012-12-02T03:54:06Z</time>
      </trkpt>
      <trkpt lat="45.90755" lon="3.82381">
        <ele>736.51</ele>
        <time>2012-12-02T03:55:46Z</time>
      </trkpt>
      <trkpt lat="45.90744" lon="3.8247">
        <ele>733.14</ele>
        <time>2012-12-02T03:56:27Z</time>
      </trkpt>
      <trkpt lat="45.90728" lon="3.82522">
        <ele>729.3</ele>
        <time>2012-12-02T03:56:52Z</time>
      </trkpt>
      <trkpt lat="45.90717" lon="3.82577">
        <ele>724.97</ele>
        <time>2012-12-02T03:57:18Z</time>
      </trkpt>
      <trkpt lat="45.90722" lon="3.82642">
        <ele>721.13</ele>
        <time>2012-12-02T03:57:45Z</time>
      </trkpt>
      <trkpt lat="45.90735" lon="3.82699">
        <ele>717.76</ele>
        <time>2012-12-02T03:58:10Z</time>
      </trkpt>
      <trkpt lat="45.90754" lon="3.82736">
        <ele>713.92</ele>
        <time>2012-12-02T03:58:30Z</time>
      </trkpt>
      <trkpt lat="45.90778" lon="3.82749">
        <ele>711.03</ele>
        <time>2012-12-02T03:58:45Z</time>
      </trkpt>
      <trkpt lat="45.90825" lon="3.82776">
        <ele>705.75</ele>
        <time>2012-12-02T03:59:17Z</time>
      </trkpt>
      <trkpt lat="45.90864" lon="3.82796">
        <ele>700.94</ele>
        <time>2012-12-02T03:59:44Z</time>
      </trkpt>
      <trkpt lat="45.90894" lon="3.8281">
        <ele>697.57</ele>
        <time>2012-12-02T04:00:05Z</time>
      </trkpt>
      <trkpt lat="45.90897" lon="3.8281">
        <ele>697.57</ele>
        <time>2012-12-02T04:00:07Z</time>
      </trkpt>
      <trkpt lat="45.90927" lon="3.82824">
        <ele>694.21</ele>
        <time>2012-12-02T04:00:25Z</time>
      </trkpt>
      <trkpt lat="45.90971" lon="3.82852">
        <ele>689.88</ele>
        <time>2012-12-02T04:00:54Z</time>
      </trkpt>
      <trkpt lat="45.91011" lon="3.82893">
        <ele>684.12</ele>
        <time>2012-12-02T04:01:25Z</time>
      </trkpt>
      <trkpt lat="45.91017" lon="3.829">
        <ele>684.12</ele>
        <time>2012-12-02T04:01:30Z</time>
      </trkpt>
      <trkpt lat="45.91039" lon="3.82923">
        <ele>680.27</ele>
        <time>2012-12-02T04:01:49Z</time>
      </trkpt>
      <trkpt lat="45.91065" lon="3.82975">
        <ele>676.91</ele>
        <time>2012-12-02T04:02:15Z</time>
      </trkpt>
      <trkpt lat="45.9108" lon="3.83032">
        <ele>673.54</ele>
        <time>2012-12-02T04:02:41Z</time>
      </trkpt>
      <trkpt lat="45.91088" lon="3.83049">
        <ele>673.06</ele>
        <time>2012-12-02T04:02:50Z</time>
      </trkpt>
      <trkpt lat="45.91084" lon="3.83112">
        <ele>669.22</ele>
        <time>2012-12-02T04:03:20Z</time>
      </trkpt>
      <trkpt lat="45.91061" lon="3.83157">
        <ele>665.37</ele>
        <time>2012-12-02T04:03:46Z</time>
      </trkpt>
      <trkpt lat="45.91038" lon="3.83207">
        <ele>661.04</ele>
        <time>2012-12-02T04:04:12Z</time>
      </trkpt>
      <trkpt lat="45.9101" lon="3.83256">
        <ele>656.24</ele>
        <time>2012-12-02T04:04:38Z</time>
      </trkpt>
      <trkpt lat="45.90989" lon="3.83303">
        <ele>652.39</ele>
        <time>2012-12-02T04:05:02Z</time>
      </trkpt>
      <trkpt lat="45.90976" lon="3.83357">
        <ele>648.07</ele>
        <time>2012-12-02T04:05:27Z</time>
      </trkpt>
      <trkpt lat="45.90996" lon="3.83393">
        <ele>643.74</ele>
        <time>2012-12-02T04:05:49Z</time>
      </trkpt>
      <trkpt lat="45.91037" lon="3.83414">
        <ele>638.93</ele>
        <time>2012-12-02T04:06:16Z</time>
      </trkpt>
      <trkpt lat="45.91074" lon="3.83429">
        <ele>634.61</ele>
        <time>2012-12-02T04:06:39Z</time>
      </trkpt>
      <trkpt lat="45.91097" lon="3.83485">
        <ele>628.84</ele>
        <time>2012-12-02T04:07:11Z</time>
      </trkpt>
      <trkpt lat="45.91087" lon="3.83542">
        <ele>625.47</ele>
        <time>2012-12-02T04:07:39Z</time>
      </trkpt>
      <trkpt lat="45.91075" lon="3.83602">
        <ele>621.15</ele>
        <time>2012-12-02T04:08:08Z</time>
      </trkpt>
      <trkpt lat="45.91058" lon="3.83693">
        <ele>614.42</ele>
        <time>2012-12-02T04:08:52Z</time>
      </trkpt>
      <trkpt lat="45.91045" lon="3.83762">
        <ele>610.09</ele>
        <time>2012-12-02T04:09:20Z</time>
      </trkpt>
      <trkpt lat="45.91044" lon="3.83767">
        <ele>610.09</ele>
        <time>2012-12-02T04:09:22Z</time>
      </trkpt>
      <trkpt lat="45.91036" lon="3.8381">
        <ele>606.73</ele>
        <time>2012-12-02T04:09:40Z</time>
      </trkpt>
      <trkpt lat="45.91022" lon="3.83876">
        <ele>603.36</ele>
        <time>2012-12-02T04:10:09Z</time>
      </trkpt>
      <trkpt lat="45.91018" lon="3.83896">
        <ele>603.36</ele>
        <time>2012-12-02T04:10:18Z</time>
      </trkpt>
      <trkpt lat="45.91025" lon="3.84049">
        <ele>603.36</ele>
        <time>2012-12-02T04:11:30Z</time>
      </trkpt>
      <trkpt lat="45.91041" lon="3.84063">
        <ele>603.36</ele>
        <time>2012-12-02T04:11:42Z</time>
      </trkpt>
      <trkpt lat="45.91074" lon="3.84095">
        <ele>603.85</ele>
        <time>2012-12-02T04:12:10Z</time>
      </trkpt>
      <trkpt lat="45.91064" lon="3.84119">
        <ele>607.21</ele>
        <time>2012-12-02T04:12:28Z</time>
      </trkpt>
      <trkpt lat="45.91071" lon="3.84198">
        <ele>612.5</ele>
        <time>2012-12-02T04:13:06Z</time>
      </trkpt>
      <trkpt lat="45.91272" lon="3.84192">
        <ele>615.38</ele>
        <time>2012-12-02T04:15:35Z</time>
      </trkpt>
      <trkpt lat="45.9129" lon="3.84203">
        <ele>617.3</ele>
        <time>2012-12-02T04:15:50Z</time>
      </trkpt>
      <trkpt lat="45.91323" lon="3.8422">
        <ele>621.15</ele>
        <time>2012-12-02T04:16:15Z</time>
      </trkpt>
      <trkpt lat="45.91361" lon="3.84238">
        <ele>624.51</ele>
        <time>2012-12-02T04:16:43Z</time>
      </trkpt>
      <trkpt lat="45.91395" lon="3.84265">
        <ele>627.88</ele>
        <time>2012-12-02T04:17:12Z</time>
      </trkpt>
      <trkpt lat="45.91437" lon="3.84299">
        <ele>632.68</ele>
        <time>2012-12-02T04:17:56Z</time>
      </trkpt>
      <trkpt lat="45.91427" lon="3.84307">
        <ele>631.72</ele>
        <time>2012-12-02T04:21:50Z</time>
      </trkpt>
      <trkpt lat="45.91452" lon="3.84299">
        <ele>634.61</ele>
        <time>2012-12-02T04:26:39Z</time>
      </trkpt>
      <trkpt lat="45.91465" lon="3.84338">
        <ele>638.93</ele>
        <time>2012-12-02T04:27:07Z</time>
      </trkpt>
      <trkpt lat="45.91466" lon="3.84376">
        <ele>642.78</ele>
        <time>2012-12-02T04:27:31Z</time>
      </trkpt>
      <trkpt lat="45.91459" lon="3.84422">
        <ele>646.14</ele>
        <time>2012-12-02T04:27:55Z</time>
      </trkpt>
      <trkpt lat="45.91455" lon="3.84459">
        <ele>649.51</ele>
        <time>2012-12-02T04:28:15Z</time>
      </trkpt>
      <trkpt lat="45.91452" lon="3.84512">
        <ele>654.8</ele>
        <time>2012-12-02T04:28:50Z</time>
      </trkpt>
      <trkpt lat="45.91452" lon="3.84512">
        <ele>654.8</ele>
        <time>2012-12-02T04:28:53Z</time>
      </trkpt>
      <trkpt lat="45.91447" lon="3.84562">
        <ele>658.64</ele>
        <time>2012-12-02T04:29:27Z</time>
      </trkpt>
      <trkpt lat="45.91446" lon="3.84565">
        <ele>658.64</ele>
        <time>2012-12-02T04:29:28Z</time>
      </trkpt>
      <trkpt lat="45.91457" lon="3.84587">
        <ele>661.04</ele>
        <time>2012-12-02T04:29:50Z</time>
      </trkpt>
      <trkpt lat="45.91484" lon="3.84563">
        <ele>664.89</ele>
        <time>2012-12-02T04:30:17Z</time>
      </trkpt>
      <trkpt lat="45.91513" lon="3.84541">
        <ele>670.18</ele>
        <time>2012-12-02T04:30:47Z</time>
      </trkpt>
      <trkpt lat="45.91527" lon="3.84543">
        <ele>673.54</ele>
        <time>2012-12-02T04:31:08Z</time>
      </trkpt>
      <trkpt lat="45.91557" lon="3.84515">
        <ele>676.91</ele>
        <time>2012-12-02T04:31:24Z</time>
      </trkpt>
      <trkpt lat="45.9158" lon="3.84512">
        <ele>680.27</ele>
        <time>2012-12-02T04:31:41Z</time>
      </trkpt>
      <trkpt lat="45.91593" lon="3.84553">
        <ele>685.56</ele>
        <time>2012-12-02T04:32:02Z</time>
      </trkpt>
      <trkpt lat="45.91596" lon="3.84596">
        <ele>691.81</ele>
        <time>2012-12-02T04:32:31Z</time>
      </trkpt>
      <trkpt lat="45.91604" lon="3.84651">
        <ele>697.57</ele>
        <time>2012-12-02T04:33:00Z</time>
      </trkpt>
      <trkpt lat="45.91609" lon="3.84679">
        <ele>700.46</ele>
        <time>2012-12-02T04:33:14Z</time>
      </trkpt>
      <trkpt lat="45.91633" lon="3.84724">
        <ele>706.23</ele>
        <time>2012-12-02T04:33:45Z</time>
      </trkpt>
      <trkpt lat="45.91669" lon="3.84799">
        <ele>714.88</ele>
        <time>2012-12-02T04:34:33Z</time>
      </trkpt>
      <trkpt lat="45.9169" lon="3.84837">
        <ele>719.68</ele>
        <time>2012-12-02T04:35:01Z</time>
      </trkpt>
      <trkpt lat="45.91713" lon="3.84883">
        <ele>724.49</ele>
        <time>2012-12-02T04:35:32Z</time>
      </trkpt>
      <trkpt lat="45.91732" lon="3.84918">
        <ele>728.34</ele>
        <time>2012-12-02T04:35:58Z</time>
      </trkpt>
      <trkpt lat="45.91748" lon="3.84952">
        <ele>733.14</ele>
        <time>2012-12-02T04:36:24Z</time>
      </trkpt>
      <trkpt lat="45.91765" lon="3.84982">
        <ele>736.99</ele>
        <time>2012-12-02T04:36:46Z</time>
      </trkpt>
      <trkpt lat="45.91778" lon="3.85007">
        <ele>740.83</ele>
        <time>2012-12-02T04:37:07Z</time>
      </trkpt>
      <trkpt lat="45.91793" lon="3.85046">
        <ele>746.12</ele>
        <time>2012-12-02T04:37:32Z</time>
      </trkpt>
      <trkpt lat="45.91798" lon="3.85076">
        <ele>750.45</ele>
        <time>2012-12-02T04:37:55Z</time>
      </trkpt>
      <trkpt lat="45.91791" lon="3.85086">
        <ele>753.33</ele>
        <time>2012-12-02T04:38:10Z</time>
      </trkpt>
      <trkpt lat="45.91786" lon="3.85114">
        <ele>756.69</ele>
        <time>2012-12-02T04:38:27Z</time>
      </trkpt>
      <trkpt lat="45.91784" lon="3.85135">
        <ele>759.58</ele>
        <time>2012-12-02T04:38:40Z</time>
      </trkpt>
      <trkpt lat="45.91784" lon="3.8514">
        <ele>759.58</ele>
        <time>2012-12-02T04:38:43Z</time>
      </trkpt>
      <trkpt lat="45.91778" lon="3.85187">
        <ele>763.9</ele>
        <time>2012-12-02T04:39:05Z</time>
      </trkpt>
      <trkpt lat="45.91772" lon="3.85219">
        <ele>767.27</ele>
        <time>2012-12-02T04:39:21Z</time>
      </trkpt>
      <trkpt lat="45.91767" lon="3.85254">
        <ele>771.11</ele>
        <time>2012-12-02T04:39:38Z</time>
      </trkpt>
      <trkpt lat="45.91759" lon="3.8528">
        <ele>774.48</ele>
        <time>2012-12-02T04:39:56Z</time>
      </trkpt>
      <trkpt lat="45.91751" lon="3.85295">
        <ele>776.88</ele>
        <time>2012-12-02T04:40:09Z</time>
      </trkpt>
      <trkpt lat="45.91754" lon="3.85358">
        <ele>783.13</ele>
        <time>2012-12-02T04:40:40Z</time>
      </trkpt>
      <trkpt lat="45.91762" lon="3.85384">
        <ele>786.5</ele>
        <time>2012-12-02T04:41:01Z</time>
      </trkpt>
      <trkpt lat="45.91786" lon="3.8539">
        <ele>789.38</ele>
        <time>2012-12-02T04:41:29Z</time>
      </trkpt>
      <trkpt lat="45.91855" lon="3.85474">
        <ele>795.63</ele>
        <time>2012-12-02T04:42:26Z</time>
      </trkpt>
      <trkpt lat="45.91892" lon="3.85495">
        <ele>800.44</ele>
        <time>2012-12-02T04:42:56Z</time>
      </trkpt>
      <trkpt lat="45.9191" lon="3.85507">
        <ele>803.8</ele>
        <time>2012-12-02T04:43:14Z</time>
      </trkpt>
      <trkpt lat="45.9193" lon="3.8556">
        <ele>807.64</ele>
        <time>2012-12-02T04:43:38Z</time>
      </trkpt>
      <trkpt lat="45.91946" lon="3.85591">
        <ele>811.97</ele>
        <time>2012-12-02T04:44:06Z</time>
      </trkpt>
      <trkpt lat="45.91978" lon="3.85617">
        <ele>816.3</ele>
        <time>2012-12-02T04:44:35Z</time>
      </trkpt>
      <trkpt lat="45.92017" lon="3.85638">
        <ele>821.58</ele>
        <time>2012-12-02T04:45:09Z</time>
      </trkpt>
      <trkpt lat="45.92017" lon="3.8564">
        <ele>821.58</ele>
        <time>2012-12-02T04:45:10Z</time>
      </trkpt>
      <trkpt lat="45.92043" lon="3.8566">
        <ele>826.39</ele>
        <time>2012-12-02T04:45:35Z</time>
      </trkpt>
      <trkpt lat="45.92101" lon="3.85666">
        <ele>830.24</ele>
        <time>2012-12-02T04:46:03Z</time>
      </trkpt>
      <trkpt lat="45.92135" lon="3.85668">
        <ele>835.52</ele>
        <time>2012-12-02T04:46:38Z</time>
      </trkpt>
      <trkpt lat="45.92161" lon="3.85711">
        <ele>838.89</ele>
        <time>2012-12-02T04:46:58Z</time>
      </trkpt>
      <trkpt lat="45.92207" lon="3.8571">
        <ele>843.21</ele>
        <time>2012-12-02T04:47:31Z</time>
      </trkpt>
      <trkpt lat="45.92261" lon="3.85707">
        <ele>848.5</ele>
        <time>2012-12-02T04:48:11Z</time>
      </trkpt>
      <trkpt lat="45.9233" lon="3.85702">
        <ele>855.71</ele>
        <time>2012-12-02T04:49:04Z</time>
      </trkpt>
      <trkpt lat="45.92383" lon="3.85697">
        <ele>860.52</ele>
        <time>2012-12-02T04:49:43Z</time>
      </trkpt>
      <trkpt lat="45.92426" lon="3.85694">
        <ele>863.88</ele>
        <time>2012-12-02T04:50:15Z</time>
      </trkpt>
      <trkpt lat="45.9247" lon="3.85698">
        <ele>867.25</ele>
        <time>2012-12-02T04:50:45Z</time>
      </trkpt>
      <trkpt lat="45.92511" lon="3.85715">
        <ele>870.61</ele>
        <time>2012-12-02T04:51:15Z</time>
      </trkpt>
      <trkpt lat="45.92549" lon="3.85741">
        <ele>874.46</ele>
        <time>2012-12-02T04:51:48Z</time>
      </trkpt>
      <trkpt lat="45.92587" lon="3.85768">
        <ele>877.82</ele>
        <time>2012-12-02T04:52:23Z</time>
      </trkpt>
      <trkpt lat="45.92611" lon="3.85795">
        <ele>881.19</ele>
        <time>2012-12-02T04:52:45Z</time>
      </trkpt>
      <trkpt lat="45.9264" lon="3.85832">
        <ele>884.55</ele>
        <time>2012-12-02T04:53:14Z</time>
      </trkpt>
      <trkpt lat="45.92664" lon="3.85867">
        <ele>888.88</ele>
        <time>2012-12-02T04:53:44Z</time>
      </trkpt>
      <trkpt lat="45.92699" lon="3.85911">
        <ele>893.2</ele>
        <time>2012-12-02T04:54:17Z</time>
      </trkpt>
      <trkpt lat="45.92728" lon="3.85939">
        <ele>896.57</ele>
        <time>2012-12-02T04:54:41Z</time>
      </trkpt>
      <trkpt lat="45.92749" lon="3.85963">
        <ele>899.93</ele>
        <time>2012-12-02T04:55:01Z</time>
      </trkpt>
      <trkpt lat="45.9275" lon="3.85964">
        <ele>899.93</ele>
        <time>2012-12-02T04:55:02Z</time>
      </trkpt>
      <trkpt lat="45.92788" lon="3.8602">
        <ele>904.26</ele>
        <time>2012-12-02T04:55:44Z</time>
      </trkpt>
      <trkpt lat="45.92789" lon="3.86022">
        <ele>904.26</ele>
        <time>2012-12-02T04:55:45Z</time>
      </trkpt>
      <trkpt lat="45.92812" lon="3.86135">
        <ele>900.89</ele>
        <time>2012-12-02T04:56:49Z</time>
      </trkpt>
      <trkpt lat="45.92826" lon="3.86259">
        <ele>897.05</ele>
        <time>2012-12-02T04:57:44Z</time>
      </trkpt>
      <trkpt lat="45.92847" lon="3.86458">
        <ele>892.24</ele>
        <time>2012-12-02T04:59:16Z</time>
      </trkpt>
      <trkpt lat="45.92953" lon="3.86645">
        <ele>894.64</ele>
        <time>2012-12-02T05:01:05Z</time>
      </trkpt>
      <trkpt lat="45.93161" lon="3.86895">
        <ele>893.68</ele>
        <time>2012-12-02T05:04:05Z</time>
      </trkpt>
      <trkpt lat="45.93213" lon="3.86904">
        <ele>888.4</ele>
        <time>2012-12-02T05:04:45Z</time>
      </trkpt>
      <trkpt lat="45.93254" lon="3.86911">
        <ele>883.11</ele>
        <time>2012-12-02T05:05:14Z</time>
      </trkpt>
      <trkpt lat="45.93301" lon="3.86911">
        <ele>878.3</ele>
        <time>2012-12-02T05:05:44Z</time>
      </trkpt>
      <trkpt lat="45.9337" lon="3.86915">
        <ele>873.98</ele>
        <time>2012-12-02T05:06:30Z</time>
      </trkpt>
      <trkpt lat="45.9352" lon="3.86932">
        <ele>871.57</ele>
        <time>2012-12-02T05:08:22Z</time>
      </trkpt>
      <trkpt lat="45.93659" lon="3.87146">
        <ele>875.42</ele>
        <time>2012-12-02T05:10:43Z</time>
      </trkpt>
      <trkpt lat="45.93823" lon="3.87118">
        <ele>878.3</ele>
        <time>2012-12-02T05:12:39Z</time>
      </trkpt>
      <trkpt lat="45.94008" lon="3.87097">
        <ele>882.15</ele>
        <time>2012-12-02T05:14:48Z</time>
      </trkpt>
      <trkpt lat="45.94173" lon="3.87009">
        <ele>885.51</ele>
        <time>2012-12-02T05:17:13Z</time>
      </trkpt>
      <trkpt lat="45.94174" lon="3.87131">
        <ele>888.88</ele>
        <time>2012-12-02T05:18:15Z</time>
      </trkpt>
      <trkpt lat="45.94167" lon="3.87188">
        <ele>888.88</ele>
        <time>2012-12-02T05:23:17Z</time>
      </trkpt>
      <trkpt lat="45.94172" lon="3.87184">
        <ele>887.43</ele>
        <time>2012-12-02T05:26:15Z</time>
      </trkpt>
      <trkpt lat="45.94118" lon="3.87364">
        <ele>891.28</ele>
        <time>2012-12-02T05:27:52Z</time>
      </trkpt>
      <trkpt lat="45.94105" lon="3.87684">
        <ele>895.12</ele>
        <time>2012-12-02T05:30:29Z</time>
      </trkpt>
      <trkpt lat="45.9428" lon="3.87643">
        <ele>900.41</ele>
        <time>2012-12-02T05:32:55Z</time>
      </trkpt>
      <trkpt lat="45.9443" lon="3.8757">
        <ele>904.26</ele>
        <time>2012-12-02T05:34:44Z</time>
      </trkpt>
      <trkpt lat="45.94509" lon="3.87602">
        <ele>905.7</ele>
        <time>2012-12-02T05:35:50Z</time>
      </trkpt>
      <trkpt lat="45.94525" lon="3.87621">
        <ele>906.18</ele>
        <time>2012-12-02T05:36:03Z</time>
      </trkpt>
      <trkpt lat="45.94603" lon="3.87811">
        <ele>909.06</ele>
        <time>2012-12-02T05:38:00Z</time>
      </trkpt>
      <trkpt lat="45.94816" lon="3.87872">
        <ele>913.87</ele>
        <time>2012-12-02T05:40:43Z</time>
      </trkpt>
      <trkpt lat="45.9487" lon="3.87935">
        <ele>913.87</ele>
        <time>2012-12-02T05:41:29Z</time>
      </trkpt>
      <trkpt lat="45.94993" lon="3.87923">
        <ele>910.51</ele>
        <time>2012-12-02T05:42:57Z</time>
      </trkpt>
      <trkpt lat="45.95005" lon="3.87904">
        <ele>910.51</ele>
        <time>2012-12-02T05:43:09Z</time>
      </trkpt>
      <trkpt lat="45.95066" lon="3.87776">
        <ele>905.7</ele>
        <time>2012-12-02T05:44:22Z</time>
      </trkpt>
      <trkpt lat="45.95085" lon="3.87738">
        <ele>903.3</ele>
        <time>2012-12-02T05:44:46Z</time>
      </trkpt>
      <trkpt lat="45.95139" lon="3.87739">
        <ele>900.89</ele>
        <time>2012-12-02T05:45:29Z</time>
      </trkpt>
      <trkpt lat="45.95311" lon="3.8798">
        <ele>894.64</ele>
        <time>2012-12-02T05:48:17Z</time>
      </trkpt>
      <trkpt lat="45.95343" lon="3.88061">
        <ele>890.8</ele>
        <time>2012-12-02T05:49:00Z</time>
      </trkpt>
      <trkpt lat="45.95361" lon="3.88101">
        <ele>887.43</ele>
        <time>2012-12-02T05:49:22Z</time>
      </trkpt>
      <trkpt lat="45.95378" lon="3.88151">
        <ele>884.07</ele>
        <time>2012-12-02T05:49:51Z</time>
      </trkpt>
      <trkpt lat="45.95402" lon="3.88271">
        <ele>880.71</ele>
        <time>2012-12-02T05:50:51Z</time>
      </trkpt>
      <trkpt lat="45.95408" lon="3.88401">
        <ele>881.19</ele>
        <time>2012-12-02T05:51:56Z</time>
      </trkpt>
      <trkpt lat="45.95404" lon="3.88419">
        <ele>881.67</ele>
        <time>2012-12-02T05:52:06Z</time>
      </trkpt>
      <trkpt lat="45.9537" lon="3.88484">
        <ele>884.07</ele>
        <time>2012-12-02T05:52:46Z</time>
      </trkpt>
      <trkpt lat="45.95333" lon="3.88783">
        <ele>885.99</ele>
        <time>2012-12-02T05:55:14Z</time>
      </trkpt>
      <trkpt lat="45.95397" lon="3.88841">
        <ele>878.78</ele>
        <time>2012-12-02T05:56:07Z</time>
      </trkpt>
      <trkpt lat="45.95436" lon="3.88848">
        <ele>875.42</ele>
        <time>2012-12-02T05:56:29Z</time>
      </trkpt>
      <trkpt lat="45.95457" lon="3.88856">
        <ele>872.05</ele>
        <time>2012-12-02T05:56:44Z</time>
      </trkpt>
      <trkpt lat="45.95483" lon="3.88863">
        <ele>868.69</ele>
        <time>2012-12-02T05:57:03Z</time>
      </trkpt>
      <trkpt lat="45.95534" lon="3.88874">
        <ele>862.44</ele>
        <time>2012-12-02T05:57:38Z</time>
      </trkpt>
      <trkpt lat="45.95565" lon="3.88887">
        <ele>858.59</ele>
        <time>2012-12-02T05:58:02Z</time>
      </trkpt>
      <trkpt lat="45.95591" lon="3.88891">
        <ele>855.23</ele>
        <time>2012-12-02T05:58:19Z</time>
      </trkpt>
      <trkpt lat="45.95638" lon="3.88896">
        <ele>849.94</ele>
        <time>2012-12-02T05:58:43Z</time>
      </trkpt>
      <trkpt lat="45.95665" lon="3.88902">
        <ele>845.62</ele>
        <time>2012-12-02T05:58:58Z</time>
      </trkpt>
      <trkpt lat="45.95695" lon="3.88912">
        <ele>842.25</ele>
        <time>2012-12-02T05:59:18Z</time>
      </trkpt>
      <trkpt lat="45.95698" lon="3.88914">
        <ele>842.25</ele>
        <time>2012-12-02T05:59:20Z</time>
      </trkpt>
      <trkpt lat="45.95726" lon="3.88923">
        <ele>837.93</ele>
        <time>2012-12-02T05:59:40Z</time>
      </trkpt>
      <trkpt lat="45.95773" lon="3.88942">
        <ele>833.6</ele>
        <time>2012-12-02T06:00:12Z</time>
      </trkpt>
      <trkpt lat="45.95821" lon="3.88957">
        <ele>829.27</ele>
        <time>2012-12-02T06:00:46Z</time>
      </trkpt>
      <trkpt lat="45.95894" lon="3.8897">
        <ele>824.47</ele>
        <time>2012-12-02T06:01:37Z</time>
      </trkpt>
      <trkpt lat="45.95912" lon="3.88974">
        <ele>823.03</ele>
        <time>2012-12-02T06:01:50Z</time>
      </trkpt>
      <trkpt lat="45.95914" lon="3.88976">
        <ele>823.03</ele>
        <time>2012-12-02T06:01:52Z</time>
      </trkpt>
      <trkpt lat="45.95959" lon="3.88979">
        <ele>819.18</ele>
        <time>2012-12-02T06:02:22Z</time>
      </trkpt>
      <trkpt lat="45.95989" lon="3.88991">
        <ele>816.78</ele>
        <time>2012-12-02T06:02:44Z</time>
      </trkpt>
      <trkpt lat="45.96025" lon="3.89007">
        <ele>812.93</ele>
        <time>2012-12-02T06:03:10Z</time>
      </trkpt>
      <trkpt lat="45.96053" lon="3.89022">
        <ele>809.09</ele>
        <time>2012-12-02T06:03:31Z</time>
      </trkpt>
      <trkpt lat="45.96096" lon="3.89045">
        <ele>804.76</ele>
        <time>2012-12-02T06:04:02Z</time>
      </trkpt>
      <trkpt lat="45.96121" lon="3.89058">
        <ele>801.4</ele>
        <time>2012-12-02T06:04:21Z</time>
      </trkpt>
      <trkpt lat="45.96162" lon="3.8908">
        <ele>797.07</ele>
        <time>2012-12-02T06:04:51Z</time>
      </trkpt>
      <trkpt lat="45.96194" lon="3.891">
        <ele>793.71</ele>
        <time>2012-12-02T06:05:16Z</time>
      </trkpt>
      <trkpt lat="45.96219" lon="3.89114">
        <ele>790.34</ele>
        <time>2012-12-02T06:05:36Z</time>
      </trkpt>
      <trkpt lat="45.96221" lon="3.89114">
        <ele>790.34</ele>
        <time>2012-12-02T06:05:38Z</time>
      </trkpt>
      <trkpt lat="45.96251" lon="3.89147">
        <ele>785.53</ele>
        <time>2012-12-02T06:06:07Z</time>
      </trkpt>
      <trkpt lat="45.96262" lon="3.89177">
        <ele>782.65</ele>
        <time>2012-12-02T06:06:23Z</time>
      </trkpt>
      <trkpt lat="45.96279" lon="3.89235">
        <ele>775.92</ele>
        <time>2012-12-02T06:07:00Z</time>
      </trkpt>
      <trkpt lat="45.96296" lon="3.89296">
        <ele>771.6</ele>
        <time>2012-12-02T06:07:34Z</time>
      </trkpt>
      <trkpt lat="45.96315" lon="3.89346">
        <ele>767.27</ele>
        <time>2012-12-02T06:08:01Z</time>
      </trkpt>
      <trkpt lat="45.96315" lon="3.89348">
        <ele>767.27</ele>
        <time>2012-12-02T06:08:02Z</time>
      </trkpt>
      <trkpt lat="45.96317" lon="3.89397">
        <ele>762.46</ele>
        <time>2012-12-02T06:08:29Z</time>
      </trkpt>
      <trkpt lat="45.96325" lon="3.89439">
        <ele>759.1</ele>
        <time>2012-12-02T06:08:49Z</time>
      </trkpt>
      <trkpt lat="45.9633" lon="3.89497">
        <ele>754.29</ele>
        <time>2012-12-02T06:09:16Z</time>
      </trkpt>
      <trkpt lat="45.96328" lon="3.89553">
        <ele>749.97</ele>
        <time>2012-12-02T06:09:47Z</time>
      </trkpt>
      <trkpt lat="45.96332" lon="3.89591">
        <ele>746.6</ele>
        <time>2012-12-02T06:10:06Z</time>
      </trkpt>
      <trkpt lat="45.96324" lon="3.89639">
        <ele>742.28</ele>
        <time>2012-12-02T06:10:30Z</time>
      </trkpt>
      <trkpt lat="45.96324" lon="3.89699">
        <ele>737.95</ele>
        <time>2012-12-02T06:10:59Z</time>
      </trkpt>
      <trkpt lat="45.96323" lon="3.89703">
        <ele>737.95</ele>
        <time>2012-12-02T06:11:01Z</time>
      </trkpt>
      <trkpt lat="45.96324" lon="3.89767">
        <ele>733.14</ele>
        <time>2012-12-02T06:11:33Z</time>
      </trkpt>
      <trkpt lat="45.96324" lon="3.89812">
        <ele>729.3</ele>
        <time>2012-12-02T06:11:55Z</time>
      </trkpt>
      <trkpt lat="45.9632" lon="3.89873">
        <ele>725.93</ele>
        <time>2012-12-02T06:12:26Z</time>
      </trkpt>
      <trkpt lat="45.9632" lon="3.89918">
        <ele>723.05</ele>
        <time>2012-12-02T06:12:49Z</time>
      </trkpt>
      <trkpt lat="45.96308" lon="3.90109">
        <ele>714.4</ele>
        <time>2012-12-02T06:14:26Z</time>
      </trkpt>
      <trkpt lat="45.96307" lon="3.90196">
        <ele>708.15</ele>
        <time>2012-12-02T06:15:09Z</time>
      </trkpt>
      <trkpt lat="45.96331" lon="3.90282">
        <ele>704.78</ele>
        <time>2012-12-02T06:15:52Z</time>
      </trkpt>
      <trkpt lat="45.96351" lon="3.90372">
        <ele>701.42</ele>
        <time>2012-12-02T06:16:41Z</time>
      </trkpt>
      <trkpt lat="45.9637" lon="3.90431">
        <ele>698.05</ele>
        <time>2012-12-02T06:17:09Z</time>
      </trkpt>
      <trkpt lat="45.9637" lon="3.90432">
        <ele>698.05</ele>
        <time>2012-12-02T06:17:10Z</time>
      </trkpt>
      <trkpt lat="45.96392" lon="3.90483">
        <ele>694.69</ele>
        <time>2012-12-02T06:17:40Z</time>
      </trkpt>
      <trkpt lat="45.96436" lon="3.90571">
        <ele>691.33</ele>
        <time>2012-12-02T06:18:30Z</time>
      </trkpt>
      <trkpt lat="45.96486" lon="3.90702">
        <ele>694.69</ele>
        <time>2012-12-02T06:19:54Z</time>
      </trkpt>
      <trkpt lat="45.96492" lon="3.90727">
        <ele>696.13</ele>
        <time>2012-12-02T06:20:10Z</time>
      </trkpt>
      <trkpt lat="45.96494" lon="3.90729">
        <ele>696.13</ele>
        <time>2012-12-02T06:20:12Z</time>
      </trkpt>
      <trkpt lat="45.96569" lon="3.9082">
        <ele>694.69</ele>
        <time>2012-12-02T06:21:51Z</time>
      </trkpt>
      <trkpt lat="45.9656" lon="3.90867">
        <ele>690.84</ele>
        <time>2012-12-02T06:22:18Z</time>
      </trkpt>
      <trkpt lat="45.96503" lon="3.9086">
        <ele>687.48</ele>
        <time>2012-12-02T06:25:36Z</time>
      </trkpt>
      <trkpt lat="45.96514" lon="3.90877">
        <ele>683.63</ele>
        <time>2012-12-02T06:34:28Z</time>
      </trkpt>
      <trkpt lat="45.96507" lon="3.90873">
        <ele>681.71</ele>
        <time>2012-12-02T06:34:43Z</time>
      </trkpt>
      <trkpt lat="45.9648" lon="3.90902">
        <ele>676.91</ele>
        <time>2012-12-02T06:35:47Z</time>
      </trkpt>
      <trkpt lat="45.96464" lon="3.90946">
        <ele>671.14</ele>
        <time>2012-12-02T06:36:37Z</time>
      </trkpt>
      <trkpt lat="45.96461" lon="3.91001">
        <ele>667.29</ele>
        <time>2012-12-02T06:37:09Z</time>
      </trkpt>
      <trkpt lat="45.96466" lon="3.91085">
        <ele>664.41</ele>
        <time>2012-12-02T06:37:50Z</time>
      </trkpt>
      <trkpt lat="45.96397" lon="3.91313">
        <ele>659.6</ele>
        <time>2012-12-02T06:39:53Z</time>
      </trkpt>
      <trkpt lat="45.96368" lon="3.91388">
        <ele>655.76</ele>
        <time>2012-12-02T06:40:35Z</time>
      </trkpt>
      <trkpt lat="45.96366" lon="3.91392">
        <ele>655.76</ele>
        <time>2012-12-02T06:40:38Z</time>
      </trkpt>
      <trkpt lat="45.96384" lon="3.91604">
        <ele>663.45</ele>
        <time>2012-12-02T06:42:57Z</time>
      </trkpt>
      <trkpt lat="45.96416" lon="3.91619">
        <ele>667.29</ele>
        <time>2012-12-02T06:43:24Z</time>
      </trkpt>
      <trkpt lat="45.96421" lon="3.91623">
        <ele>667.77</ele>
        <time>2012-12-02T06:43:28Z</time>
      </trkpt>
      <trkpt lat="45.9646" lon="3.91649">
        <ele>673.06</ele>
        <time>2012-12-02T06:44:00Z</time>
      </trkpt>
      <trkpt lat="45.96487" lon="3.91675">
        <ele>676.42</ele>
        <time>2012-12-02T06:44:25Z</time>
      </trkpt>
      <trkpt lat="45.96515" lon="3.91705">
        <ele>682.19</ele>
        <time>2012-12-02T06:44:54Z</time>
      </trkpt>
      <trkpt lat="45.96537" lon="3.91727">
        <ele>685.56</ele>
        <time>2012-12-02T06:45:16Z</time>
      </trkpt>
      <trkpt lat="45.96587" lon="3.91787">
        <ele>689.4</ele>
        <time>2012-12-02T06:46:04Z</time>
      </trkpt>
      <trkpt lat="45.96624" lon="3.91829">
        <ele>693.25</ele>
        <time>2012-12-02T06:46:38Z</time>
      </trkpt>
      <trkpt lat="45.96672" lon="3.91871">
        <ele>697.09</ele>
        <time>2012-12-02T06:47:20Z</time>
      </trkpt>
      <trkpt lat="45.96748" lon="3.91915">
        <ele>703.82</ele>
        <time>2012-12-02T06:48:19Z</time>
      </trkpt>
      <trkpt lat="45.96788" lon="3.9194">
        <ele>708.63</ele>
        <time>2012-12-02T06:48:52Z</time>
      </trkpt>
      <trkpt lat="45.96825" lon="3.91952">
        <ele>713.44</ele>
        <time>2012-12-02T06:49:23Z</time>
      </trkpt>
      <trkpt lat="45.96855" lon="3.91953">
        <ele>717.76</ele>
        <time>2012-12-02T06:49:47Z</time>
      </trkpt>
      <trkpt lat="45.9688" lon="3.91954">
        <ele>721.61</ele>
        <time>2012-12-02T06:50:09Z</time>
      </trkpt>
      <trkpt lat="45.96912" lon="3.91956">
        <ele>727.37</ele>
        <time>2012-12-02T06:50:36Z</time>
      </trkpt>
      <trkpt lat="45.96913" lon="3.91956">
        <ele>727.37</ele>
        <time>2012-12-02T06:50:37Z</time>
      </trkpt>
      <trkpt lat="45.96953" lon="3.91968">
        <ele>731.7</ele>
        <time>2012-12-02T06:51:09Z</time>
      </trkpt>
      <trkpt lat="45.96986" lon="3.91989">
        <ele>736.99</ele>
        <time>2012-12-02T06:51:41Z</time>
      </trkpt>
      <trkpt lat="45.97011" lon="3.92007">
        <ele>740.83</ele>
        <time>2012-12-02T06:52:04Z</time>
      </trkpt>
      <trkpt lat="45.97048" lon="3.92036">
        <ele>745.64</ele>
        <time>2012-12-02T06:52:37Z</time>
      </trkpt>
      <trkpt lat="45.97082" lon="3.92066">
        <ele>749.97</ele>
        <time>2012-12-02T06:53:07Z</time>
      </trkpt>
      <trkpt lat="45.97085" lon="3.92067">
        <ele>749.97</ele>
        <time>2012-12-02T06:53:09Z</time>
      </trkpt>
      <trkpt lat="45.97124" lon="3.92101">
        <ele>753.81</ele>
        <time>2012-12-02T06:53:44Z</time>
      </trkpt>
      <trkpt lat="45.97151" lon="3.92136">
        <ele>757.18</ele>
        <time>2012-12-02T06:54:13Z</time>
      </trkpt>
      <trkpt lat="45.97176" lon="3.92189">
        <ele>760.54</ele>
        <time>2012-12-02T06:54:46Z</time>
      </trkpt>
      <trkpt lat="45.97196" lon="3.92241">
        <ele>763.9</ele>
        <time>2012-12-02T06:55:18Z</time>
      </trkpt>
      <trkpt lat="45.97234" lon="3.92329">
        <ele>768.23</ele>
        <time>2012-12-02T06:56:10Z</time>
      </trkpt>
      <trkpt lat="45.97255" lon="3.92525">
        <ele>764.87</ele>
        <time>2012-12-02T06:57:51Z</time>
      </trkpt>
      <trkpt lat="45.97247" lon="3.92582">
        <ele>761.02</ele>
        <time>2012-12-02T06:58:16Z</time>
      </trkpt>
      <trkpt lat="45.97239" lon="3.92634">
        <ele>757.66</ele>
        <time>2012-12-02T06:58:40Z</time>
      </trkpt>
      <trkpt lat="45.97226" lon="3.92687">
        <ele>752.37</ele>
        <time>2012-12-02T06:59:04Z</time>
      </trkpt>
      <trkpt lat="45.97206" lon="3.9272">
        <ele>748.04</ele>
        <time>2012-12-02T06:59:25Z</time>
      </trkpt>
      <trkpt lat="45.97175" lon="3.92751">
        <ele>743.72</ele>
        <time>2012-12-02T06:59:49Z</time>
      </trkpt>
      <trkpt lat="45.97142" lon="3.92776">
        <ele>737.95</ele>
        <time>2012-12-02T07:00:12Z</time>
      </trkpt>
      <trkpt lat="45.97119" lon="3.92794">
        <ele>733.62</ele>
        <time>2012-12-02T07:00:31Z</time>
      </trkpt>
      <trkpt lat="45.97095" lon="3.92848">
        <ele>730.26</ele>
        <time>2012-12-02T07:01:00Z</time>
      </trkpt>
      <trkpt lat="45.97097" lon="3.9288">
        <ele>726.41</ele>
        <time>2012-12-02T07:01:19Z</time>
      </trkpt>
      <trkpt lat="45.97109" lon="3.9291">
        <ele>722.57</ele>
        <time>2012-12-02T07:01:41Z</time>
      </trkpt>
      <trkpt lat="45.97141" lon="3.92952">
        <ele>715.84</ele>
        <time>2012-12-02T07:02:06Z</time>
      </trkpt>
      <trkpt lat="45.97159" lon="3.92975">
        <ele>711.51</ele>
        <time>2012-12-02T07:02:22Z</time>
      </trkpt>
      <trkpt lat="45.97177" lon="3.92998">
        <ele>707.67</ele>
        <time>2012-12-02T07:02:38Z</time>
      </trkpt>
      <trkpt lat="45.97202" lon="3.9303">
        <ele>701.9</ele>
        <time>2012-12-02T07:02:59Z</time>
      </trkpt>
      <trkpt lat="45.97227" lon="3.93055">
        <ele>697.57</ele>
        <time>2012-12-02T07:03:13Z</time>
      </trkpt>
      <trkpt lat="45.97248" lon="3.9308">
        <ele>693.25</ele>
        <time>2012-12-02T07:03:26Z</time>
      </trkpt>
      <trkpt lat="45.9727" lon="3.93111">
        <ele>688.92</ele>
        <time>2012-12-02T07:03:41Z</time>
      </trkpt>
      <trkpt lat="45.97288" lon="3.93132">
        <ele>685.08</ele>
        <time>2012-12-02T07:03:52Z</time>
      </trkpt>
      <trkpt lat="45.9731" lon="3.93152">
        <ele>681.71</ele>
        <time>2012-12-02T07:04:05Z</time>
      </trkpt>
      <trkpt lat="45.97333" lon="3.93166">
        <ele>677.39</ele>
        <time>2012-12-02T07:04:18Z</time>
      </trkpt>
      <trkpt lat="45.97357" lon="3.93185">
        <ele>673.54</ele>
        <time>2012-12-02T07:04:29Z</time>
      </trkpt>
      <trkpt lat="45.97387" lon="3.93214">
        <ele>669.22</ele>
        <time>2012-12-02T07:04:45Z</time>
      </trkpt>
      <trkpt lat="45.97403" lon="3.93224">
        <ele>665.85</ele>
        <time>2012-12-02T07:04:54Z</time>
      </trkpt>
      <trkpt lat="45.97427" lon="3.93234">
        <ele>662.49</ele>
        <time>2012-12-02T07:05:07Z</time>
      </trkpt>
      <trkpt lat="45.9746" lon="3.93263">
        <ele>658.64</ele>
        <time>2012-12-02T07:05:25Z</time>
      </trkpt>
      <trkpt lat="45.97485" lon="3.93292">
        <ele>654.8</ele>
        <time>2012-12-02T07:05:45Z</time>
      </trkpt>
      <trkpt lat="45.9752" lon="3.93346">
        <ele>650.47</ele>
        <time>2012-12-02T07:06:13Z</time>
      </trkpt>
      <trkpt lat="45.9754" lon="3.93373">
        <ele>646.14</ele>
        <time>2012-12-02T07:06:32Z</time>
      </trkpt>
      <trkpt lat="45.97565" lon="3.93391">
        <ele>642.78</ele>
        <time>2012-12-02T07:06:52Z</time>
      </trkpt>
      <trkpt lat="45.97578" lon="3.93412">
        <ele>638.93</ele>
        <time>2012-12-02T07:07:04Z</time>
      </trkpt>
      <trkpt lat="45.97591" lon="3.93442">
        <ele>635.09</ele>
        <time>2012-12-02T07:07:16Z</time>
      </trkpt>
      <trkpt lat="45.97609" lon="3.93481">
        <ele>629.8</ele>
        <time>2012-12-02T07:07:31Z</time>
      </trkpt>
      <trkpt lat="45.97628" lon="3.9353">
        <ele>623.07</ele>
        <time>2012-12-02T07:07:51Z</time>
      </trkpt>
      <trkpt lat="45.97645" lon="3.93579">
        <ele>618.26</ele>
        <time>2012-12-02T07:08:06Z</time>
      </trkpt>
      <trkpt lat="45.97666" lon="3.93623">
        <ele>614.42</ele>
        <time>2012-12-02T07:08:19Z</time>
      </trkpt>
      <trkpt lat="45.97681" lon="3.93664">
        <ele>610.57</ele>
        <time>2012-12-02T07:08:32Z</time>
      </trkpt>
      <trkpt lat="45.97706" lon="3.93725">
        <ele>605.29</ele>
        <time>2012-12-02T07:08:53Z</time>
      </trkpt>
      <trkpt lat="45.9774" lon="3.9381">
        <ele>599.52</ele>
        <time>2012-12-02T07:09:33Z</time>
      </trkpt>
      <trkpt lat="45.9776" lon="3.93866">
        <ele>595.67</ele>
        <time>2012-12-02T07:10:00Z</time>
      </trkpt>
      <trkpt lat="45.97785" lon="3.9392">
        <ele>592.31</ele>
        <time>2012-12-02T07:10:22Z</time>
      </trkpt>
      <trkpt lat="45.978" lon="3.93971">
        <ele>587.98</ele>
        <time>2012-12-02T07:10:50Z</time>
      </trkpt>
      <trkpt lat="45.97817" lon="3.94056">
        <ele>582.7</ele>
        <time>2012-12-02T07:11:30Z</time>
      </trkpt>
      <trkpt lat="45.97819" lon="3.94163">
        <ele>576.93</ele>
        <time>2012-12-02T07:12:19Z</time>
      </trkpt>
      <trkpt lat="45.97817" lon="3.94229">
        <ele>572.6</ele>
        <time>2012-12-02T07:12:48Z</time>
      </trkpt>
      <trkpt lat="45.9782" lon="3.94272">
        <ele>569.24</ele>
        <time>2012-12-02T07:13:06Z</time>
      </trkpt>
      <trkpt lat="45.97832" lon="3.94337">
        <ele>565.39</ele>
        <time>2012-12-02T07:13:35Z</time>
      </trkpt>
      <trkpt lat="45.97846" lon="3.94423">
        <ele>561.55</ele>
        <time>2012-12-02T07:14:16Z</time>
      </trkpt>
      <trkpt lat="45.97845" lon="3.94487">
        <ele>557.7</ele>
        <time>2012-12-02T07:14:44Z</time>
      </trkpt>
      <trkpt lat="45.9783" lon="3.9455">
        <ele>551.93</ele>
        <time>2012-12-02T07:15:11Z</time>
      </trkpt>
      <trkpt lat="45.97828" lon="3.94554">
        <ele>551.93</ele>
        <time>2012-12-02T07:15:13Z</time>
      </trkpt>
      <trkpt lat="45.97798" lon="3.94581">
        <ele>545.69</ele>
        <time>2012-12-02T07:15:32Z</time>
      </trkpt>
      <trkpt lat="45.97772" lon="3.94591">
        <ele>541.84</ele>
        <time>2012-12-02T07:15:45Z</time>
      </trkpt>
      <trkpt lat="45.97749" lon="3.94636">
        <ele>538.96</ele>
        <time>2012-12-02T07:16:14Z</time>
      </trkpt>
      <trkpt lat="45.97875" lon="3.94891">
        <ele>533.19</ele>
        <time>2012-12-02T07:18:38Z</time>
      </trkpt>
      <trkpt lat="45.97896" lon="3.94935">
        <ele>529.82</ele>
        <time>2012-12-02T07:19:05Z</time>
      </trkpt>
      <trkpt lat="45.9791" lon="3.9499">
        <ele>525.02</ele>
        <time>2012-12-02T07:19:34Z</time>
      </trkpt>
      <trkpt lat="45.97912" lon="3.95028">
        <ele>520.69</ele>
        <time>2012-12-02T07:19:56Z</time>
      </trkpt>
      <trkpt lat="45.97918" lon="3.95073">
        <ele>516.85</ele>
        <time>2012-12-02T07:20:21Z</time>
      </trkpt>
      <trkpt lat="45.97915" lon="3.9511">
        <ele>513</ele>
        <time>2012-12-02T07:20:41Z</time>
      </trkpt>
      <trkpt lat="45.97907" lon="3.95137">
        <ele>509.64</ele>
        <time>2012-12-02T07:20:55Z</time>
      </trkpt>
      <trkpt lat="45.97902" lon="3.95174">
        <ele>506.27</ele>
        <time>2012-12-02T07:21:09Z</time>
      </trkpt>
      <trkpt lat="45.97896" lon="3.9521">
        <ele>501.95</ele>
        <time>2012-12-02T07:21:26Z</time>
      </trkpt>
      <trkpt lat="45.97912" lon="3.95263">
        <ele>498.1</ele>
        <time>2012-12-02T07:21:48Z</time>
      </trkpt>
      <trkpt lat="45.97941" lon="3.95334">
        <ele>492.81</ele>
        <time>2012-12-02T07:22:21Z</time>
      </trkpt>
      <trkpt lat="45.9796" lon="3.95383">
        <ele>488.49</ele>
        <time>2012-12-02T07:22:41Z</time>
      </trkpt>
      <trkpt lat="45.97985" lon="3.95445">
        <ele>484.64</ele>
        <time>2012-12-02T07:23:04Z</time>
      </trkpt>
      <trkpt lat="45.98005" lon="3.95492">
        <ele>481.28</ele>
        <time>2012-12-02T07:23:21Z</time>
      </trkpt>
      <trkpt lat="45.98032" lon="3.95551">
        <ele>475.99</ele>
        <time>2012-12-02T07:23:46Z</time>
      </trkpt>
      <trkpt lat="45.98034" lon="3.95557">
        <ele>475.99</ele>
        <time>2012-12-02T07:23:48Z</time>
      </trkpt>
      <trkpt lat="45.98055" lon="3.95603">
        <ele>471.18</ele>
        <time>2012-12-02T07:24:08Z</time>
      </trkpt>
      <trkpt lat="45.98056" lon="3.95605">
        <ele>471.18</ele>
        <time>2012-12-02T07:24:09Z</time>
      </trkpt>
      <trkpt lat="45.98078" lon="3.9566">
        <ele>465.9</ele>
        <time>2012-12-02T07:24:36Z</time>
      </trkpt>
      <trkpt lat="45.98101" lon="3.95707">
        <ele>462.05</ele>
        <time>2012-12-02T07:25:00Z</time>
      </trkpt>
      <trkpt lat="45.98121" lon="3.95753">
        <ele>458.69</ele>
        <time>2012-12-02T07:25:24Z</time>
      </trkpt>
      <trkpt lat="45.98139" lon="3.958">
        <ele>454.84</ele>
        <time>2012-12-02T07:25:49Z</time>
      </trkpt>
      <trkpt lat="45.98158" lon="3.95842">
        <ele>451</ele>
        <time>2012-12-02T07:26:11Z</time>
      </trkpt>
      <trkpt lat="45.98181" lon="3.95894">
        <ele>445.71</ele>
        <time>2012-12-02T07:26:37Z</time>
      </trkpt>
      <trkpt lat="45.98203" lon="3.95942">
        <ele>440.42</ele>
        <time>2012-12-02T07:27:02Z</time>
      </trkpt>
      <trkpt lat="45.9822" lon="3.95982">
        <ele>436.1</ele>
        <time>2012-12-02T07:27:23Z</time>
      </trkpt>
      <trkpt lat="45.98235" lon="3.96019">
        <ele>432.25</ele>
        <time>2012-12-02T07:27:42Z</time>
      </trkpt>
      <trkpt lat="45.98252" lon="3.96065">
        <ele>428.4</ele>
        <time>2012-12-02T07:28:08Z</time>
      </trkpt>
      <trkpt lat="45.98276" lon="3.96115">
        <ele>425.04</ele>
        <time>2012-12-02T07:28:35Z</time>
      </trkpt>
      <trkpt lat="45.98306" lon="3.96183">
        <ele>421.19</ele>
        <time>2012-12-02T07:29:12Z</time>
      </trkpt>
      <trkpt lat="45.98308" lon="3.96191">
        <ele>421.19</ele>
        <time>2012-12-02T07:29:16Z</time>
      </trkpt>
      <trkpt lat="45.98366" lon="3.96316">
        <ele>417.83</ele>
        <time>2012-12-02T07:30:37Z</time>
      </trkpt>
      <trkpt lat="45.98415" lon="3.96425">
        <ele>412.06</ele>
        <time>2012-12-02T07:31:40Z</time>
      </trkpt>
      <trkpt lat="45.98444" lon="3.96496">
        <ele>408.7</ele>
        <time>2012-12-02T07:32:20Z</time>
      </trkpt>
      <trkpt lat="45.98472" lon="3.96566">
        <ele>404.85</ele>
        <time>2012-12-02T07:33:01Z</time>
      </trkpt>
      <trkpt lat="45.98515" lon="3.96658">
        <ele>401.49</ele>
        <time>2012-12-02T07:33:56Z</time>
      </trkpt>
      <trkpt lat="45.98554" lon="3.9675">
        <ele>397.64</ele>
        <time>2012-12-02T07:34:49Z</time>
      </trkpt>
      <trkpt lat="45.98687" lon="3.97049">
        <ele>394.76</ele>
        <time>2012-12-02T07:37:44Z</time>
      </trkpt>
      <trkpt lat="45.98703" lon="3.97063">
        <ele>394.76</ele>
        <time>2012-12-02T07:37:57Z</time>
      </trkpt>
      <trkpt lat="45.99346" lon="3.97538">
        <ele>389.95</ele>
        <time>2012-12-02T07:46:51Z</time>
      </trkpt>
      <trkpt lat="45.99491" lon="3.97714">
        <ele>384.18</ele>
        <time>2012-12-02T07:49:07Z</time>
      </trkpt>
      <trkpt lat="45.99551" lon="3.97754">
        <ele>381.78</ele>
        <time>2012-12-02T07:49:55Z</time>
      </trkpt>
      <trkpt lat="45.99606" lon="3.97796">
        <ele>377.94</ele>
        <time>2012-12-02T07:50:39Z</time>
      </trkpt>
      <trkpt lat="45.99684" lon="3.97874">
        <ele>373.61</ele>
        <time>2012-12-02T07:51:52Z</time>
      </trkpt>
      <trkpt lat="45.99686" lon="3.97877">
        <ele>373.61</ele>
        <time>2012-12-02T07:51:56Z</time>
      </trkpt>
      <trkpt lat="45.99757" lon="3.98021">
        <ele>370.24</ele>
        <time>2012-12-02T07:53:30Z</time>
      </trkpt>
      <trkpt lat="45.99771" lon="3.9804">
        <ele>369.76</ele>
        <time>2012-12-02T07:53:41Z</time>
      </trkpt>
      <trkpt lat="45.99838" lon="3.98052">
        <ele>366.4</ele>
        <time>2012-12-02T07:54:30Z</time>
      </trkpt>
      <trkpt lat="45.99866" lon="3.98048">
        <ele>364.96</ele>
        <time>2012-12-02T07:57:28Z</time>
      </trkpt>
      <trkpt lat="45.99853" lon="3.98052">
        <ele>365.44</ele>
        <time>2012-12-02T07:58:22Z</time>
      </trkpt>
      <trkpt lat="45.99785" lon="3.98058">
        <ele>369.28</ele>
        <time>2012-12-02T07:59:19Z</time>
      </trkpt>
      <trkpt lat="45.99823" lon="3.98206">
        <ele>364.48</ele>
        <time>2012-12-02T08:00:44Z</time>
      </trkpt>
      <trkpt lat="45.9984" lon="3.9836">
        <ele>361.11</ele>
        <time>2012-12-02T08:02:03Z</time>
      </trkpt>
      <trkpt lat="45.99864" lon="3.98577">
        <ele>355.83</ele>
        <time>2012-12-02T08:03:53Z</time>
      </trkpt>
      <trkpt lat="45.99903" lon="3.98751">
        <ele>351.98</ele>
        <time>2012-12-02T08:05:24Z</time>
      </trkpt>
      <trkpt lat="45.99995" lon="3.98951">
        <ele>346.21</ele>
        <time>2012-12-02T08:07:26Z</time>
      </trkpt>
      <trkpt lat="46.00089" lon="3.99232">
        <ele>341.89</ele>
        <time>2012-12-02T08:10:11Z</time>
      </trkpt>
      <trkpt lat="46.00206" lon="3.99509">
        <ele>338.52</ele>
        <time>2012-12-02T08:13:03Z</time>
      </trkpt>
      <trkpt lat="46.00302" lon="3.99768">
        <ele>336.6</ele>
        <time>2012-12-02T08:15:47Z</time>
      </trkpt>
      <trkpt lat="46.00428" lon="4.00222">
        <ele>334.2</ele>
        <time>2012-12-02T08:20:04Z</time>
      </trkpt>
      <trkpt lat="46.00633" lon="4.00333">
        <ele>331.31</ele>
        <time>2012-12-02T08:22:43Z</time>
      </trkpt>
      <trkpt lat="46.00775" lon="4.00387">
        <ele>327.47</ele>
        <time>2012-12-02T08:24:31Z</time>
      </trkpt>
      <trkpt lat="46.00915" lon="4.00374">
        <ele>328.43</ele>
        <time>2012-12-02T08:26:29Z</time>
      </trkpt>
      <trkpt lat="46.00978" lon="4.00369">
        <ele>332.27</ele>
        <time>2012-12-02T08:27:20Z</time>
      </trkpt>
      <trkpt lat="46.00989" lon="4.0037">
        <ele>332.75</ele>
        <time>2012-12-02T08:27:29Z</time>
      </trkpt>
      <trkpt lat="46.00988" lon="4.00483">
        <ele>335.16</ele>
        <time>2012-12-02T08:28:32Z</time>
      </trkpt>
      <trkpt lat="46.00989" lon="4.0054">
        <ele>335.64</ele>
        <time>2012-12-02T08:29:02Z</time>
      </trkpt>
      <trkpt lat="46.01122" lon="4.00734">
        <ele>331.79</ele>
        <time>2012-12-02T08:31:25Z</time>
      </trkpt>
      <trkpt lat="46.01267" lon="4.00929">
        <ele>329.39</ele>
        <time>2012-12-02T08:33:47Z</time>
      </trkpt>
      <trkpt lat="46.01406" lon="4.01601">
        <ele>330.83</ele>
        <time>2012-12-02T08:40:01Z</time>
      </trkpt>
      <trkpt lat="46.01689" lon="4.02208">
        <ele>330.35</ele>
        <time>2012-12-02T08:46:26Z</time>
      </trkpt>
      <trkpt lat="46.01981" lon="4.02572">
        <ele>327.95</ele>
        <time>2012-12-02T08:51:14Z</time>
      </trkpt>
      <trkpt lat="46.021" lon="4.02778">
        <ele>321.22</ele>
        <time>2012-12-02T08:53:31Z</time>
      </trkpt>
      <trkpt lat="46.02103" lon="4.02783">
        <ele>321.22</ele>
        <time>2012-12-02T08:53:35Z</time>
      </trkpt>
      <trkpt lat="46.02336" lon="4.03471">
        <ele>316.41</ele>
        <time>2012-12-02T09:00:14Z</time>
      </trkpt>
      <trkpt lat="46.02545" lon="4.0403">
        <ele>311.6</ele>
        <time>2012-12-02T09:05:52Z</time>
      </trkpt>
      <trkpt lat="46.02577" lon="4.04063">
        <ele>308.24</ele>
        <time>2012-12-02T09:06:16Z</time>
      </trkpt>
      <trkpt lat="46.02585" lon="4.04071">
        <ele>308.24</ele>
        <time>2012-12-02T09:06:22Z</time>
      </trkpt>
      <trkpt lat="46.02608" lon="4.04094">
        <ele>304.88</ele>
        <time>2012-12-02T09:06:42Z</time>
      </trkpt>
      <trkpt lat="46.02641" lon="4.04131">
        <ele>301.03</ele>
        <time>2012-12-02T09:07:13Z</time>
      </trkpt>
      <trkpt lat="46.02668" lon="4.04178">
        <ele>297.67</ele>
        <time>2012-12-02T09:07:48Z</time>
      </trkpt>
      <trkpt lat="46.02727" lon="4.04245">
        <ele>295.26</ele>
        <time>2012-12-02T09:08:41Z</time>
      </trkpt>
      <trkpt lat="46.02758" lon="4.04592">
        <ele>291.9</ele>
        <time>2012-12-02T09:11:51Z</time>
      </trkpt>
      <trkpt lat="46.0276" lon="4.04777">
        <ele>290.94</ele>
        <time>2012-12-02T09:13:32Z</time>
      </trkpt>
      <trkpt lat="46.02761" lon="4.04781">
        <ele>290.94</ele>
        <time>2012-12-02T09:13:34Z</time>
      </trkpt>
      <trkpt lat="46.0277" lon="4.04809">
        <ele>291.42</ele>
        <time>2012-12-02T09:13:51Z</time>
      </trkpt>
      <trkpt lat="46.02844" lon="4.048">
        <ele>289.49</ele>
        <time>2012-12-02T09:15:00Z</time>
      </trkpt>
      <trkpt lat="46.03007" lon="4.0476">
        <ele>288.53</ele>
        <time>2012-12-02T09:17:07Z</time>
      </trkpt>
      <trkpt lat="46.03028" lon="4.04754">
        <ele>288.05</ele>
        <time>2012-12-02T09:17:26Z</time>
      </trkpt>
      <trkpt lat="46.03101" lon="4.0484">
        <ele>286.13</ele>
        <time>2012-12-02T09:18:40Z</time>
      </trkpt>
    </trkseg>
  </trk>
</gpx>